Wetterdaten: Montag, 06.01.2020
Datum Zeit Temp. Aussen Temp. o. S. Temp +5cm Feuchte Auss Luftdruck Regen Sonnenschein Regendauer Solar Windben Empfang
06.01.2020 00:00 6,1 C 5,6 C 5,0 C 87 % 1032,6 hPa 0,0 l/m 0 min 0 min 0 W/m 0,0 km/h (0 Bft) 97,87 %
06.01.2020 00:02 6,1 C 5,6 C 5,0 C 87 % 1032,7 hPa 0,0 l/m 0 min 0 min 0 W/m 0,0 km/h (0 Bft) 100,00 %
06.01.2020 00:04 6,1 C 5,6 C 5,0 C 87 % 1032,7 hPa 0,0 l/m 0 min 0 min 0 W/m 0,0 km/h (0 Bft) 97,87 %
06.01.2020 00:08 6,1 C 5,6 C 5,0 C 87 % 1032,7 hPa 0,0 l/m 0 min 0 min 0 W/m 0,0 km/h (0 Bft) 95,74 %
06.01.2020 00:10 6,1 C 5,6 C 5,0 C 87 % 1032,6 hPa 0,0 l/m 0 min 0 min 0 W/m 0,0 km/h (0 Bft) 97,87 %
06.01.2020 00:12 6,1 C 5,6 C 5,0 C 87 % 1032,6 hPa 0,0 l/m 0 min 0 min 0 W/m 0,0 km/h (0 Bft) 97,87 %
06.01.2020 00:14 6,1 C 5,6 C 5,0 C 87 % 1032,6 hPa 0,0 l/m 0 min 0 min 0 W/m 0,0 km/h (0 Bft) 97,83 %
06.01.2020 00:16 6,1 C 5,6 C 5,0 C 87 % 1032,6 hPa 0,0 l/m 0 min 0 min 0 W/m 0,0 km/h (0 Bft) 97,87 %
06.01.2020 00:18 6,1 C 5,6 C 5,0 C 87 % 1032,5 hPa 0,0 l/m 0 min 0 min 0 W/m 0,0 km/h (0 Bft) 97,87 %
06.01.2020 00:20 6,1 C 5,6 C 5,0 C 87 % 1032,5 hPa 0,0 l/m 0 min 0 min 0 W/m 0,0 km/h (0 Bft) 97,87 %
06.01.2020 00:22 6,1 C 5,6 C 5,0 C 87 % 1032,5 hPa 0,0 l/m 0 min 0 min 0 W/m 0,0 km/h (0 Bft) 97,87 %
06.01.2020 00:24 6,1 C 5,6 C 5,0 C 87 % 1032,5 hPa 0,0 l/m 0 min 0 min 0 W/m 0,0 km/h (0 Bft) 97,87 %
06.01.2020 00:26 6,1 C 5,6 C 5,0 C 87 % 1032,5 hPa 0,0 l/m 0 min 0 min 0 W/m 0,0 km/h (0 Bft) 95,65 %
06.01.2020 00:28 6,1 C 5,6 C 5,0 C 87 % 1032,4 hPa 0,0 l/m 0 min 0 min 0 W/m 0,0 km/h (0 Bft) 97,87 %
06.01.2020 00:30 6,1 C 5,6 C 5,0 C 87 % 1032,4 hPa 0,0 l/m 0 min 0 min 0 W/m 0,0 km/h (0 Bft) 97,87 %
06.01.2020 00:32 6,1 C 5,6 C 5,0 C 87 % 1032,4 hPa 0,0 l/m 0 min 0 min 0 W/m 6,4 km/h (2 Bft) 97,87 %
06.01.2020 00:34 6,1 C 5,6 C 5,0 C 87 % 1032,4 hPa 0,0 l/m 0 min 0 min 0 W/m 0,0 km/h (0 Bft) 97,87 %
06.01.2020 00:36 6,1 C 5,6 C 5,0 C 87 % 1032,4 hPa 0,0 l/m 0 min 0 min 0 W/m 3,2 km/h (1 Bft) 96,55 %
06.01.2020 00:38 6,1 C 5,6 C 5,0 C 87 % 1032,4 hPa 0,0 l/m 0 min 0 min 0 W/m 0,0 km/h (0 Bft) 97,87 %
06.01.2020 00:40 6,1 C 5,6 C 5,0 C 87 % 1032,4 hPa 0,0 l/m 0 min 0 min 0 W/m 0,0 km/h (0 Bft) 100,00 %
06.01.2020 00:42 6,1 C 5,6 C 5,0 C 87 % 1032,4 hPa 0,0 l/m 0 min 0 min 0 W/m 0,0 km/h (0 Bft) 100,00 %
06.01.2020 00:44 6,1 C 5,6 C 5,0 C 87 % 1032,3 hPa 0,0 l/m 0 min 0 min 0 W/m 0,0 km/h (0 Bft) 100,00 %
06.01.2020 00:46 6,1 C 5,6 C 5,0 C 87 % 1032,3 hPa 0,0 l/m 0 min 0 min 0 W/m 0,0 km/h (0 Bft) 100,00 %
06.01.2020 00:48 6,1 C 5,6 C 5,0 C 87 % 1032,3 hPa 0,0 l/m 0 min 0 min 0 W/m 0,0 km/h (0 Bft) 100,00 %
06.01.2020 00:50 6,1 C 5,6 C 5,0 C 87 % 1032,3 hPa 0,0 l/m 0 min 0 min 0 W/m 3,2 km/h (1 Bft) 100,00 %
06.01.2020 00:52 6,1 C 5,6 C 5,0 C 87 % 1032,3 hPa 0,0 l/m 0 min 0 min 0 W/m 0,0 km/h (0 Bft) 100,00 %
06.01.2020 00:54 6,1 C 5,6 C 5,0 C 87 % 1032,3 hPa 0,0 l/m 0 min 0 min 0 W/m 0,0 km/h (0 Bft) 100,00 %
06.01.2020 00:56 6,1 C 5,6 C 5,0 C 87 % 1032,3 hPa 0,0 l/m 0 min 0 min 0 W/m 12,9 km/h (3 Bft) 100,00 %
06.01.2020 00:58 6,1 C 5,6 C 5,0 C 87 % 1032,3 hPa 0,0 l/m 0 min 0 min 0 W/m 0,0 km/h (0 Bft) 100,00 %
06.01.2020 01:00 6,1 C 5,6 C 5,0 C 87 % 1032,3 hPa 0,0 l/m 0 min 0 min 0 W/m 0,0 km/h (0 Bft) 100,00 %
06.01.2020 01:02 6,1 C 5,6 C 5,0 C 86 % 1032,3 hPa 0,0 l/m 0 min 0 min 0 W/m 0,0 km/h (0 Bft) 97,87 %
06.01.2020 01:04 6,1 C 5,6 C 5,0 C 86 % 1032,2 hPa 0,0 l/m 0 min 0 min 0 W/m 0,0 km/h (0 Bft) 97,87 %
06.01.2020 01:06 6,1 C 5,6 C 5,0 C 86 % 1032,2 hPa 0,0 l/m 0 min 0 min 0 W/m 0,0 km/h (0 Bft) 98,31 %
06.01.2020 01:08 6,1 C 5,6 C 5,0 C 86 % 1032,2 hPa 0,0 l/m 0 min 0 min 0 W/m 0,0 km/h (0 Bft) 93,48 %
06.01.2020 01:10 6,1 C 5,6 C 5,0 C 86 % 1032,2 hPa 0,0 l/m 0 min 0 min 0 W/m 0,0 km/h (0 Bft) 100,00 %
06.01.2020 01:12 6,1 C 5,6 C 5,0 C 86 % 1032,2 hPa 0,0 l/m 0 min 0 min 0 W/m 0,0 km/h (0 Bft) 95,65 %
06.01.2020 01:14 6,1 C 5,6 C 5,0 C 86 % 1032,1 hPa 0,0 l/m 0 min 0 min 0 W/m 0,0 km/h (0 Bft) 97,87 %
06.01.2020 01:16 6,1 C 5,6 C 5,0 C 86 % 1032,1 hPa 0,0 l/m 0 min 0 min 0 W/m 0,0 km/h (0 Bft) 97,87 %
06.01.2020 01:18 6,1 C 5,6 C 5,0 C 86 % 1032,2 hPa 0,0 l/m 0 min 0 min 0 W/m 0,0 km/h (0 Bft) 97,87 %
06.01.2020 01:20 6,1 C 5,6 C 5,0 C 86 % 1032,2 hPa 0,0 l/m 0 min 0 min 0 W/m 6,4 km/h (2 Bft) 97,87 %
06.01.2020 01:22 6,1 C 5,6 C 5,0 C 86 % 1032,2 hPa 0,0 l/m 0 min 0 min 0 W/m 0,0 km/h (0 Bft) 97,87 %
06.01.2020 01:24 6,1 C 5,6 C 5,0 C 86 % 1032,1 hPa 0,0 l/m 0 min 0 min 0 W/m 0,0 km/h (0 Bft) 95,65 %
06.01.2020 01:26 6,1 C 5,6 C 5,0 C 86 % 1032,1 hPa 0,0 l/m 0 min 0 min 0 W/m 0,0 km/h (0 Bft) 95,74 %
06.01.2020 01:28 6,1 C 5,6 C 5,0 C 86 % 1032,0 hPa 0,0 l/m 0 min 0 min 0 W/m 0,0 km/h (0 Bft) 95,74 %
06.01.2020 01:30 6,1 C 5,6 C 5,0 C 86 % 1032,0 hPa 0,0 l/m 0 min 0 min 0 W/m 0,0 km/h (0 Bft) 91,49 %
06.01.2020 01:32 6,1 C 5,6 C 5,0 C 86 % 1032,0 hPa 0,0 l/m 0 min 0 min 0 W/m 0,0 km/h (0 Bft) 95,74 %
06.01.2020 01:34 6,1 C 5,6 C 5,0 C 86 % 1032,0 hPa 0,0 l/m 0 min 0 min 0 W/m 0,0 km/h (0 Bft) 95,65 %
06.01.2020 01:36 6,1 C 5,6 C 5,0 C 86 % 1032,0 hPa 0,0 l/m 0 min 0 min 0 W/m 0,0 km/h (0 Bft) 95,74 %
06.01.2020 01:38 6,1 C 5,6 C 5,0 C 86 % 1031,9 hPa 0,0 l/m 0 min 0 min 0 W/m 0,0 km/h (0 Bft) 95,74 %
06.01.2020 01:40 6,1 C 5,6 C 5,0 C 86 % 1031,9 hPa 0,0 l/m 0 min 0 min 0 W/m 0,0 km/h (0 Bft) 95,74 %
06.01.2020 01:42 6,1 C 5,6 C 5,0 C 86 % 1031,9 hPa 0,0 l/m 0 min 0 min 0 W/m 0,0 km/h (0 Bft) 93,62 %
06.01.2020 01:44 6,1 C 5,6 C 5,0 C 86 % 1031,9 hPa 0,0 l/m 0 min 0 min 0 W/m 0,0 km/h (0 Bft) 93,62 %
06.01.2020 01:46 6,1 C 5,6 C 5,0 C 86 % 1031,8 hPa 0,0 l/m 0 min 0 min 0 W/m 0,0 km/h (0 Bft) 97,83 %
06.01.2020 01:48 6,1 C 5,6 C 5,0 C 86 % 1031,8 hPa 0,0 l/m 0 min 0 min 0 W/m 0,0 km/h (0 Bft) 93,62 %
06.01.2020 01:50 6,1 C 5,6 C 5,0 C 86 % 1031,8 hPa 0,0 l/m 0 min 0 min 0 W/m 3,2 km/h (1 Bft) 97,87 %
06.01.2020 01:52 6,1 C 5,6 C 5,0 C 86 % 1031,8 hPa 0,0 l/m 0 min 0 min 0 W/m 0,0 km/h (0 Bft) 97,87 %
06.01.2020 01:54 6,1 C 5,6 C 5,0 C 86 % 1031,8 hPa 0,0 l/m 0 min 0 min 0 W/m 0,0 km/h (0 Bft) 97,87 %
06.01.2020 01:56 6,1 C 5,6 C 5,0 C 86 % 1031,7 hPa 0,0 l/m 0 min 0 min 0 W/m 0,0 km/h (0 Bft) 97,87 %
06.01.2020 01:58 6,1 C 5,6 C 5,0 C 86 % 1031,7 hPa 0,0 l/m 0 min 0 min 0 W/m 0,0 km/h (0 Bft) 95,65 %
06.01.2020 02:00 6,1 C 5,6 C 5,0 C 86 % 1031,7 hPa 0,0 l/m 0 min 0 min 0 W/m 0,0 km/h (0 Bft) 97,87 %
06.01.2020 02:02 6,1 C 5,6 C 5,0 C 87 % 1031,7 hPa 0,0 l/m 0 min 0 min 0 W/m 0,0 km/h (0 Bft) 98,00 %
06.01.2020 02:04 6,1 C 5,6 C 5,0 C 87 % 1031,7 hPa 0,0 l/m 0 min 0 min 0 W/m 0,0 km/h (0 Bft) 97,87 %
06.01.2020 02:06 6,1 C 5,6 C 5,0 C 87 % 1031,7 hPa 0,0 l/m 0 min 0 min 0 W/m 0,0 km/h (0 Bft) 95,74 %
06.01.2020 02:08 6,1 C 5,6 C 5,0 C 87 % 1031,7 hPa 0,0 l/m 0 min 0 min 0 W/m 0,0 km/h (0 Bft) 97,87 %
06.01.2020 02:10 6,1 C 5,6 C 5,0 C 87 % 1031,6 hPa 0,0 l/m 0 min 0 min 0 W/m 0,0 km/h (0 Bft) 97,83 %
06.01.2020 02:12 6,1 C 5,6 C 5,0 C 87 % 1031,7 hPa 0,0 l/m 0 min 0 min 0 W/m 0,0 km/h (0 Bft) 97,87 %
06.01.2020 02:14 6,0 C 5,6 C 5,0 C 87 % 1031,7 hPa 0,0 l/m 0 min 0 min 0 W/m 0,0 km/h (0 Bft) 97,87 %
06.01.2020 02:16 6,0 C 5,6 C 4,4 C 87 % 1031,7 hPa 0,0 l/m 0 min 0 min 0 W/m 0,0 km/h (0 Bft) 93,62 %
06.01.2020 02:18 6,0 C 5,6 C 4,4 C 87 % 1031,7 hPa 0,0 l/m 0 min 0 min 0 W/m 0,0 km/h (0 Bft) 100,00 %
06.01.2020 02:20 6,0 C 5,6 C 5,0 C 87 % 1031,7 hPa 0,0 l/m 0 min 0 min 0 W/m 0,0 km/h (0 Bft) 95,65 %
06.01.2020 02:22 6,0 C 5,6 C 5,0 C 87 % 1031,7 hPa 0,0 l/m 0 min 0 min 0 W/m 0,0 km/h (0 Bft) 97,87 %
06.01.2020 02:24 6,0 C 5,6 C 4,4 C 87 % 1031,7 hPa 0,0 l/m 0 min 0 min 0 W/m 0,0 km/h (0 Bft) 100,00 %
06.01.2020 02:26 6,0 C 5,0 C 4,4 C 87 % 1031,6 hPa 0,0 l/m 0 min 0 min 0 W/m 0,0 km/h (0 Bft) 100,00 %
06.01.2020 02:28 6,0 C 5,6 C 4,4 C 87 % 1031,6 hPa 0,0 l/m 0 min 0 min 0 W/m 0,0 km/h (0 Bft) 100,00 %
06.01.2020 02:30 6,0 C 5,6 C 4,4 C 87 % 1031,6 hPa 0,0 l/m 0 min 0 min 0 W/m 0,0 km/h (0 Bft) 95,74 %
06.01.2020 02:32 5,9 C 5,6 C 4,4 C 87 % 1031,6 hPa 0,0 l/m 0 min 0 min 0 W/m 0,0 km/h (0 Bft) 100,00 %
06.01.2020 02:34 6,0 C 5,6 C 4,4 C 87 % 1031,6 hPa 0,0 l/m 0 min 0 min 0 W/m 0,0 km/h (0 Bft) 100,00 %
06.01.2020 02:36 5,9 C 5,6 C 4,4 C 87 % 1031,6 hPa 0,0 l/m 0 min 0 min 0 W/m 0,0 km/h (0 Bft) 100,00 %
06.01.2020 02:38 5,9 C 5,6 C 4,4 C 87 % 1031,6 hPa 0,0 l/m 0 min 0 min 0 W/m 0,0 km/h (0 Bft) 100,00 %
06.01.2020 02:40 5,9 C 5,6 C 5,0 C 87 % 1031,6 hPa 0,0 l/m 0 min 0 min 0 W/m 0,0 km/h (0 Bft) 95,74 %
06.01.2020 02:42 5,9 C 5,6 C 5,0 C 87 % 1031,5 hPa 0,0 l/m 0 min 0 min 0 W/m 0,0 km/h (0 Bft) 97,87 %
06.01.2020 02:44 5,9 C 5,6 C 5,0 C 87 % 1031,5 hPa 0,0 l/m 0 min 0 min 0 W/m 0,0 km/h (0 Bft) 97,83 %
06.01.2020 02:46 5,9 C 5,6 C 5,0 C 87 % 1031,5 hPa 0,0 l/m 0 min 0 min 0 W/m 0,0 km/h (0 Bft) 97,87 %
06.01.2020 02:48 5,9 C 5,6 C 5,0 C 87 % 1031,5 hPa 0,0 l/m 0 min 0 min 0 W/m 0,0 km/h (0 Bft) 97,87 %
06.01.2020 02:50 5,9 C 5,6 C 5,0 C 87 % 1031,4 hPa 0,0 l/m 0 min 0 min 0 W/m 0,0 km/h (0 Bft) 95,74 %
06.01.2020 02:52 5,9 C 5,6 C 5,0 C 87 % 1031,4 hPa 0,0 l/m 0 min 0 min 0 W/m 3,2 km/h (1 Bft) 95,74 %
06.01.2020 02:54 5,9 C 5,6 C 5,0 C 87 % 1031,4 hPa 0,0 l/m 0 min 0 min 0 W/m 0,0 km/h (0 Bft) 97,87 %
06.01.2020 02:56 5,9 C 5,6 C 5,0 C 87 % 1031,4 hPa 0,0 l/m 0 min 0 min 0 W/m 0,0 km/h (0 Bft) 97,83 %
06.01.2020 02:58 5,9 C 5,6 C 5,0 C 87 % 1031,4 hPa 0,0 l/m 0 min 0 min 0 W/m 0,0 km/h (0 Bft) 97,87 %
06.01.2020 03:00 5,9 C 5,6 C 5,0 C 87 % 1031,4 hPa 0,0 l/m 0 min 0 min 0 W/m 0,0 km/h (0 Bft) 93,62 %
06.01.2020 03:02 5,9 C 5,6 C 5,0 C 87 % 1031,4 hPa 0,0 l/m 0 min 0 min 0 W/m 0,0 km/h (0 Bft) 97,87 %
06.01.2020 03:04 5,9 C 5,6 C 5,0 C 87 % 1031,4 hPa 0,0 l/m 0 min 0 min 0 W/m 0,0 km/h (0 Bft) 97,87 %
06.01.2020 03:06 5,9 C 5,6 C 5,0 C 87 % 1031,3 hPa 0,0 l/m 0 min 0 min 0 W/m 0,0 km/h (0 Bft) 97,83 %
06.01.2020 03:08 5,9 C 5,6 C 5,0 C 87 % 1031,4 hPa 0,0 l/m 0 min 0 min 0 W/m 0,0 km/h (0 Bft) 97,87 %
06.01.2020 03:10 5,9 C 5,6 C 5,0 C 87 % 1031,4 hPa 0,0 l/m 0 min 0 min 0 W/m 0,0 km/h (0 Bft) 97,87 %
06.01.2020 03:12 5,9 C 5,6 C 5,0 C 87 % 1031,4 hPa 0,0 l/m 0 min 0 min 0 W/m 0,0 km/h (0 Bft) 97,87 %
06.01.2020 03:14 5,9 C 5,6 C 5,0 C 87 % 1031,3 hPa 0,0 l/m 0 min 0 min 0 W/m 0,0 km/h (0 Bft) 97,87 %
06.01.2020 03:16 5,9 C 5,6 C 5,0 C 87 % 1031,3 hPa 0,0 l/m 0 min 0 min 0 W/m 0,0 km/h (0 Bft) 97,87 %
06.01.2020 03:18 5,9 C 5,6 C 5,0 C 87 % 1031,3 hPa 0,0 l/m 0 min 0 min 0 W/m 0,0 km/h (0 Bft) 97,83 %
06.01.2020 03:20 5,9 C 5,6 C 5,0 C 87 % 1031,2 hPa 0,0 l/m 0 min 0 min 0 W/m 0,0 km/h (0 Bft) 97,87 %
06.01.2020 03:22 5,9 C 5,6 C 5,0 C 87 % 1031,2 hPa 0,0 l/m 0 min 0 min 0 W/m 0,0 km/h (0 Bft) 95,74 %
06.01.2020 03:24 5,9 C 5,6 C 5,0 C 87 % 1031,3 hPa 0,0 l/m 0 min 0 min 0 W/m 0,0 km/h (0 Bft) 97,87 %
06.01.2020 03:26 6,0 C 5,6 C 5,0 C 87 % 1031,2 hPa 0,0 l/m 0 min 0 min 0 W/m 0,0 km/h (0 Bft) 97,87 %
06.01.2020 03:28 5,9 C 5,6 C 5,0 C 87 % 1031,2 hPa 0,0 l/m 0 min 0 min 0 W/m 12,9 km/h (3 Bft) 100,00 %
06.01.2020 03:30 5,9 C 5,6 C 5,0 C 87 % 1031,2 hPa 0,0 l/m 0 min 0 min 0 W/m 3,2 km/h (1 Bft) 100,00 %
06.01.2020 03:32 5,9 C 5,6 C 5,0 C 87 % 1031,1 hPa 0,0 l/m 0 min 0 min 0 W/m 0,0 km/h (0 Bft) 100,00 %
06.01.2020 03:34 5,9 C 5,6 C 5,0 C 87 % 1031,1 hPa 0,0 l/m 0 min 0 min 0 W/m 0,0 km/h (0 Bft) 100,00 %
06.01.2020 03:36 5,9 C 5,6 C 5,0 C 87 % 1031,1 hPa 0,0 l/m 0 min 0 min 0 W/m 0,0 km/h (0 Bft) 97,87 %
06.01.2020 03:38 6,0 C 5,6 C 5,0 C 87 % 1031,1 hPa 0,0 l/m 0 min 0 min 0 W/m 3,2 km/h (1 Bft) 97,87 %
06.01.2020 03:40 5,9 C 5,6 C 5,0 C 87 % 1031,1 hPa 0,0 l/m 0 min 0 min 0 W/m 0,0 km/h (0 Bft) 97,87 %
06.01.2020 03:42 6,0 C 5,6 C 5,0 C 87 % 1031,1 hPa 0,0 l/m 0 min 0 min 0 W/m 0,0 km/h (0 Bft) 97,83 %
06.01.2020 03:44 6,0 C 5,6 C 5,0 C 87 % 1031,0 hPa 0,0 l/m 0 min 0 min 0 W/m 0,0 km/h (0 Bft) 97,87 %
06.01.2020 03:46 6,0 C 5,6 C 5,0 C 87 % 1031,0 hPa 0,0 l/m 0 min 0 min 0 W/m 0,0 km/h (0 Bft) 97,87 %
06.01.2020 03:48 6,0 C 5,6 C 5,0 C 87 % 1031,0 hPa 0,0 l/m 0 min 0 min 0 W/m 0,0 km/h (0 Bft) 93,62 %
06.01.2020 03:50 6,0 C 5,6 C 5,0 C 87 % 1031,0 hPa 0,0 l/m 0 min 0 min 0 W/m 0,0 km/h (0 Bft) 97,87 %
06.01.2020 03:52 6,0 C 5,6 C 5,0 C 87 % 1031,0 hPa 0,0 l/m 0 min 0 min 0 W/m 0,0 km/h (0 Bft) 97,87 %
06.01.2020 03:54 6,0 C 5,6 C 5,0 C 87 % 1031,0 hPa 0,0 l/m 0 min 0 min 0 W/m 3,2 km/h (1 Bft) 97,83 %
06.01.2020 03:56 6,0 C 5,6 C 5,0 C 87 % 1031,0 hPa 0,0 l/m 0 min 0 min 0 W/m 12,9 km/h (3 Bft) 97,87 %
06.01.2020 03:58 6,0 C 5,6 C 5,0 C 87 % 1031,0 hPa 0,0 l/m 0 min 0 min 0 W/m 3,2 km/h (1 Bft) 95,74 %
06.01.2020 04:00 6,0 C 5,6 C 5,0 C 86 % 1031,0 hPa 0,0 l/m 0 min 0 min 0 W/m 0,0 km/h (0 Bft) 97,87 %
06.01.2020 04:02 6,0 C 5,6 C 5,0 C 86 % 1030,9 hPa 0,0 l/m 0 min 0 min 0 W/m 0,0 km/h (0 Bft) 100,00 %
06.01.2020 04:04 6,0 C 5,6 C 5,0 C 86 % 1030,9 hPa 0,0 l/m 0 min 0 min 0 W/m 0,0 km/h (0 Bft) 97,83 %
06.01.2020 04:06 6,0 C 5,6 C 5,0 C 86 % 1030,9 hPa 0,0 l/m 0 min 0 min 0 W/m 0,0 km/h (0 Bft) 97,87 %
06.01.2020 04:08 6,1 C 5,6 C 5,0 C 86 % 1030,8 hPa 0,0 l/m 0 min 0 min 0 W/m 0,0 km/h (0 Bft) 97,87 %
06.01.2020 04:10 6,1 C 5,6 C 5,0 C 86 % 1030,8 hPa 0,0 l/m 0 min 0 min 0 W/m 0,0 km/h (0 Bft) 97,87 %
06.01.2020 04:12 6,1 C 5,6 C 5,0 C 86 % 1030,8 hPa 0,0 l/m 0 min 0 min 0 W/m 0,0 km/h (0 Bft) 97,87 %
06.01.2020 04:14 6,1 C 5,6 C 5,0 C 86 % 1030,8 hPa 0,0 l/m 0 min 0 min 0 W/m 0,0 km/h (0 Bft) 97,87 %
06.01.2020 04:16 6,1 C 5,6 C 5,0 C 86 % 1030,7 hPa 0,0 l/m 0 min 0 min 0 W/m 0,0 km/h (0 Bft) 97,83 %
06.01.2020 04:18 6,1 C 5,6 C 5,0 C 86 % 1030,7 hPa 0,0 l/m 0 min 0 min 0 W/m 0,0 km/h (0 Bft) 97,87 %
06.01.2020 04:20 6,1 C 5,6 C 5,0 C 86 % 1030,8 hPa 0,0 l/m 0 min 0 min 0 W/m 0,0 km/h (0 Bft) 97,87 %
06.01.2020 04:22 6,1 C 5,6 C 5,0 C 86 % 1030,7 hPa 0,0 l/m 0 min 0 min 0 W/m 0,0 km/h (0 Bft) 95,74 %
06.01.2020 04:24 6,1 C 5,6 C 5,0 C 86 % 1030,7 hPa 0,0 l/m 0 min 0 min 0 W/m 3,2 km/h (1 Bft) 100,00 %
06.01.2020 04:26 6,1 C 5,6 C 5,0 C 86 % 1030,7 hPa 0,0 l/m 0 min 0 min 0 W/m 0,0 km/h (0 Bft) 100,00 %
06.01.2020 04:28 6,1 C 5,6 C 5,0 C 86 % 1030,7 hPa 0,0 l/m 0 min 0 min 0 W/m 3,2 km/h (1 Bft) 100,00 %
06.01.2020 04:30 6,1 C 5,6 C 5,0 C 86 % 1030,7 hPa 0,0 l/m 0 min 0 min 0 W/m 6,4 km/h (2 Bft) 97,87 %
06.01.2020 04:32 6,1 C 5,6 C 5,0 C 86 % 1030,7 hPa 0,0 l/m 0 min 0 min 0 W/m 0,0 km/h (0 Bft) 100,00 %
06.01.2020 04:34 6,1 C 5,6 C 5,0 C 86 % 1030,6 hPa 0,0 l/m 0 min 0 min 0 W/m 3,2 km/h (1 Bft) 97,87 %
06.01.2020 04:36 6,1 C 5,6 C 5,0 C 86 % 1030,6 hPa 0,0 l/m 0 min 0 min 0 W/m 3,2 km/h (1 Bft) 100,00 %
06.01.2020 04:38 6,1 C 5,6 C 5,0 C 86 % 1030,6 hPa 0,0 l/m 0 min 0 min 0 W/m 0,0 km/h (0 Bft) 100,00 %
06.01.2020 04:40 6,1 C 5,6 C 5,0 C 86 % 1030,6 hPa 0,0 l/m 0 min 0 min 0 W/m 0,0 km/h (0 Bft) 100,00 %
06.01.2020 04:42 6,1 C 5,6 C 5,0 C 86 % 1030,6 hPa 0,0 l/m 0 min 0 min 0 W/m 6,4 km/h (2 Bft) 97,87 %
06.01.2020 04:44 6,1 C 5,6 C 5,0 C 86 % 1030,6 hPa 0,0 l/m 0 min 0 min 0 W/m 0,0 km/h (0 Bft) 95,74 %
06.01.2020 04:46 6,1 C 5,6 C 5,0 C 86 % 1030,6 hPa 0,0 l/m 0 min 0 min 0 W/m 0,0 km/h (0 Bft) 95,74 %
06.01.2020 04:48 6,1 C 5,6 C 5,0 C 86 % 1030,6 hPa 0,0 l/m 0 min 0 min 0 W/m 0,0 km/h (0 Bft) 97,87 %
06.01.2020 04:50 6,1 C 5,6 C 5,0 C 86 % 1030,6 hPa 0,0 l/m 0 min 0 min 0 W/m 0,0 km/h (0 Bft) 97,87 %
06.01.2020 04:52 6,1 C 5,6 C 5,0 C 86 % 1030,5 hPa 0,0 l/m 0 min 0 min 0 W/m 0,0 km/h (0 Bft) 97,83 %
06.01.2020 04:54 6,1 C 5,6 C 5,0 C 86 % 1030,5 hPa 0,0 l/m 0 min 0 min 0 W/m 0,0 km/h (0 Bft) 95,74 %
06.01.2020 04:56 6,1 C 5,6 C 5,0 C 86 % 1030,5 hPa 0,0 l/m 0 min 0 min 0 W/m 0,0 km/h (0 Bft) 93,62 %
06.01.2020 04:58 6,1 C 5,6 C 5,0 C 86 % 1030,5 hPa 0,0 l/m 0 min 0 min 0 W/m 0,0 km/h (0 Bft) 97,87 %
06.01.2020 05:00 6,1 C 5,6 C 5,0 C 86 % 1030,5 hPa 0,0 l/m 0 min 0 min 0 W/m 0,0 km/h (0 Bft) 97,87 %
06.01.2020 05:02 6,1 C 5,6 C 5,0 C 86 % 1030,5 hPa 0,0 l/m 0 min 0 min 0 W/m 0,0 km/h (0 Bft) 95,74 %
06.01.2020 05:04 6,1 C 5,6 C 5,0 C 86 % 1030,4 hPa 0,0 l/m 0 min 0 min 0 W/m 0,0 km/h (0 Bft) 97,83 %
06.01.2020 05:06 6,1 C 5,6 C 5,0 C 86 % 1030,4 hPa 0,0 l/m 0 min 0 min 0 W/m 0,0 km/h (0 Bft) 95,74 %
06.01.2020 05:08 6,0 C 5,6 C 5,0 C 86 % 1030,4 hPa 0,0 l/m 0 min 0 min 0 W/m 0,0 km/h (0 Bft) 97,87 %
06.01.2020 05:10 6,0 C 5,6 C 5,0 C 86 % 1030,4 hPa 0,0 l/m 0 min 0 min 0 W/m 0,0 km/h (0 Bft) 97,87 %
06.01.2020 05:12 6,0 C 5,6 C 5,0 C 86 % 1030,4 hPa 0,0 l/m 0 min 0 min 0 W/m 0,0 km/h (0 Bft) 95,74 %
06.01.2020 05:14 6,0 C 5,6 C 5,0 C 86 % 1030,4 hPa 0,0 l/m 0 min 0 min 0 W/m 0,0 km/h (0 Bft) 97,83 %
06.01.2020 05:16 6,0 C 5,6 C 5,0 C 86 % 1030,4 hPa 0,0 l/m 0 min 0 min 0 W/m 0,0 km/h (0 Bft) 93,62 %
06.01.2020 05:18 6,0 C 5,6 C 5,0 C 86 % 1030,4 hPa 0,0 l/m 0 min 0 min 0 W/m 0,0 km/h (0 Bft) 97,87 %
06.01.2020 05:20 6,0 C 5,6 C 5,0 C 86 % 1030,3 hPa 0,0 l/m 0 min 0 min 0 W/m 0,0 km/h (0 Bft) 97,87 %
06.01.2020 05:22 6,0 C 5,6 C 5,0 C 86 % 1030,3 hPa 0,0 l/m 0 min 0 min 0 W/m 3,2 km/h (1 Bft) 97,87 %
06.01.2020 05:24 6,0 C 5,6 C 5,0 C 86 % 1030,4 hPa 0,0 l/m 0 min 0 min 0 W/m 0,0 km/h (0 Bft) 97,87 %
06.01.2020 05:26 6,0 C 5,6 C 5,0 C 86 % 1030,3 hPa 0,0 l/m 0 min 0 min 0 W/m 0,0 km/h (0 Bft) 97,83 %
06.01.2020 05:28 6,0 C 5,6 C 5,0 C 86 % 1030,3 hPa 0,0 l/m 0 min 0 min 0 W/m 0,0 km/h (0 Bft) 95,74 %
06.01.2020 05:30 6,0 C 5,6 C 5,0 C 86 % 1030,3 hPa 0,0 l/m 0 min 0 min 0 W/m 0,0 km/h (0 Bft) 95,74 %
06.01.2020 05:32 6,0 C 5,6 C 5,0 C 86 % 1030,3 hPa 0,0 l/m 0 min 0 min 0 W/m 0,0 km/h (0 Bft) 95,74 %
06.01.2020 05:34 6,0 C 5,6 C 4,4 C 86 % 1030,3 hPa 0,0 l/m 0 min 0 min 0 W/m 0,0 km/h (0 Bft) 95,74 %
06.01.2020 05:36 6,0 C 5,6 C 4,4 C 86 % 1030,3 hPa 0,0 l/m 0 min 0 min 0 W/m 0,0 km/h (0 Bft) 95,74 %
06.01.2020 05:38 6,0 C 5,6 C 4,4 C 86 % 1030,2 hPa 0,0 l/m 0 min 0 min 0 W/m 0,0 km/h (0 Bft) 93,48 %
06.01.2020 05:40 6,0 C 5,6 C 4,4 C 86 % 1030,2 hPa 0,0 l/m 0 min 0 min 0 W/m 0,0 km/h (0 Bft) 95,74 %
06.01.2020 05:42 5,9 C 5,6 C 4,4 C 86 % 1030,2 hPa 0,0 l/m 0 min 0 min 0 W/m 0,0 km/h (0 Bft) 97,87 %
06.01.2020 05:44 5,9 C 5,6 C 4,4 C 86 % 1030,2 hPa 0,0 l/m 0 min 0 min 0 W/m 0,0 km/h (0 Bft) 95,74 %
06.01.2020 05:46 5,9 C 5,6 C 4,4 C 86 % 1030,1 hPa 0,0 l/m 0 min 0 min 0 W/m 0,0 km/h (0 Bft) 97,87 %
06.01.2020 05:48 5,9 C 5,6 C 5,0 C 86 % 1030,1 hPa 0,0 l/m 0 min 0 min 0 W/m 0,0 km/h (0 Bft) 97,87 %
06.01.2020 05:50 5,9 C 5,6 C 4,4 C 86 % 1030,1 hPa 0,0 l/m 0 min 0 min 0 W/m 0,0 km/h (0 Bft) 97,83 %
06.01.2020 05:52 5,9 C 5,6 C 4,4 C 86 % 1030,1 hPa 0,0 l/m 0 min 0 min 0 W/m 3,2 km/h (1 Bft) 95,74 %
06.01.2020 05:54 5,9 C 5,6 C 5,0 C 86 % 1030,1 hPa 0,0 l/m 0 min 0 min 0 W/m 0,0 km/h (0 Bft) 95,74 %
06.01.2020 05:56 5,9 C 5,6 C 4,4 C 86 % 1030,1 hPa 0,0 l/m 0 min 0 min 0 W/m 0,0 km/h (0 Bft) 95,74 %
06.01.2020 05:58 5,9 C 5,6 C 4,4 C 86 % 1030,1 hPa 0,0 l/m 0 min 0 min 0 W/m 0,0 km/h (0 Bft) 97,87 %
06.01.2020 06:00 5,9 C 5,6 C 4,4 C 86 % 1030,1 hPa 0,0 l/m 0 min 0 min 0 W/m 0,0 km/h (0 Bft) 97,87 %
06.01.2020 06:02 5,9 C 5,0 C 4,4 C 86 % 1030,1 hPa 0,0 l/m 0 min 0 min 0 W/m 0,0 km/h (0 Bft) 95,65 %
06.01.2020 06:04 5,9 C 5,0 C 4,4 C 86 % 1030,1 hPa 0,0 l/m 0 min 0 min 0 W/m 0,0 km/h (0 Bft) 95,74 %
06.01.2020 06:06 5,9 C 5,0 C 4,4 C 86 % 1030,0 hPa 0,0 l/m 0 min 0 min 0 W/m 0,0 km/h (0 Bft) 97,87 %
06.01.2020 06:08 5,9 C 5,0 C 4,4 C 86 % 1030,0 hPa 0,0 l/m 0 min 0 min 0 W/m 0,0 km/h (0 Bft) 95,74 %
06.01.2020 06:10 5,9 C 5,0 C 4,4 C 86 % 1030,0 hPa 0,0 l/m 0 min 0 min 0 W/m 0,0 km/h (0 Bft) 97,87 %
06.01.2020 06:12 5,9 C 5,0 C 4,4 C 86 % 1030,1 hPa 0,0 l/m 0 min 0 min 0 W/m 0,0 km/h (0 Bft) 97,83 %
06.01.2020 06:14 5,9 C 5,0 C 4,4 C 86 % 1030,1 hPa 0,0 l/m 0 min 0 min 0 W/m 0,0 km/h (0 Bft) 95,74 %
06.01.2020 06:16 5,9 C 5,0 C 4,4 C 86 % 1030,0 hPa 0,0 l/m 0 min 0 min 0 W/m 0,0 km/h (0 Bft) 97,87 %
06.01.2020 06:18 5,9 C 5,0 C 4,4 C 86 % 1030,0 hPa 0,0 l/m 0 min 0 min 0 W/m 0,0 km/h (0 Bft) 95,74 %
06.01.2020 06:20 5,9 C 5,0 C 4,4 C 86 % 1030,0 hPa 0,0 l/m 0 min 0 min 0 W/m 0,0 km/h (0 Bft) 97,87 %
06.01.2020 06:22 5,9 C 5,0 C 4,4 C 86 % 1030,0 hPa 0,0 l/m 0 min 0 min 0 W/m 0,0 km/h (0 Bft) 95,74 %
06.01.2020 06:24 5,9 C 5,0 C 4,4 C 86 % 1030,0 hPa 0,0 l/m 0 min 0 min 0 W/m 0,0 km/h (0 Bft) 95,65 %
06.01.2020 06:26 5,9 C 5,0 C 4,4 C 86 % 1029,9 hPa 0,0 l/m 0 min 0 min 0 W/m 0,0 km/h (0 Bft) 97,87 %
06.01.2020 06:28 5,9 C 5,0 C 4,4 C 86 % 1029,9 hPa 0,0 l/m 0 min 0 min 0 W/m 0,0 km/h (0 Bft) 97,87 %
06.01.2020 06:30 5,9 C 5,0 C 4,4 C 86 % 1029,9 hPa 0,0 l/m 0 min 0 min 0 W/m 0,0 km/h (0 Bft) 97,87 %
06.01.2020 06:32 5,9 C 5,0 C 4,4 C 86 % 1029,9 hPa 0,0 l/m 0 min 0 min 0 W/m 3,2 km/h (1 Bft) 97,87 %
06.01.2020 06:34 5,9 C 5,0 C 4,4 C 86 % 1029,9 hPa 0,0 l/m 0 min 0 min 0 W/m 0,0 km/h (0 Bft) 97,87 %
06.01.2020 06:36 5,9 C 5,0 C 4,4 C 86 % 1029,9 hPa 0,0 l/m 0 min 0 min 0 W/m 0,0 km/h (0 Bft) 97,83 %
06.01.2020 06:38 5,9 C 5,0 C 4,4 C 86 % 1029,8 hPa 0,0 l/m 0 min 0 min 0 W/m 0,0 km/h (0 Bft) 93,62 %
06.01.2020 06:40 5,8 C 5,0 C 4,4 C 86 % 1029,8 hPa 0,0 l/m 0 min 0 min 0 W/m 3,2 km/h (1 Bft) 95,74 %
06.01.2020 06:42 5,8 C 5,0 C 4,4 C 86 % 1029,8 hPa 0,0 l/m 0 min 0 min 0 W/m 0,0 km/h (0 Bft) 97,87 %
06.01.2020 06:44 5,8 C 5,0 C 4,4 C 86 % 1029,8 hPa 0,0 l/m 0 min 0 min 0 W/m 3,2 km/h (1 Bft) 97,87 %
06.01.2020 06:46 5,8 C 5,0 C 4,4 C 86 % 1029,8 hPa 0,0 l/m 0 min 0 min 0 W/m 0,0 km/h (0 Bft) 95,74 %
06.01.2020 06:48 5,8 C 5,0 C 4,4 C 86 % 1029,8 hPa 0,0 l/m 0 min 0 min 0 W/m 3,2 km/h (1 Bft) 97,83 %
06.01.2020 06:50 5,8 C 5,0 C 4,4 C 86 % 1029,8 hPa 0,0 l/m 0 min 0 min 0 W/m 0,0 km/h (0 Bft) 97,87 %
06.01.2020 06:52 5,8 C 5,0 C 4,4 C 86 % 1029,8 hPa 0,0 l/m 0 min 0 min 0 W/m 6,4 km/h (2 Bft) 97,87 %
06.01.2020 06:54 5,8 C 5,0 C 4,4 C 86 % 1029,8 hPa 0,0 l/m 0 min 0 min 0 W/m 0,0 km/h (0 Bft) 95,74 %
06.01.2020 06:56 5,8 C 5,0 C 4,4 C 86 % 1029,8 hPa 0,0 l/m 0 min 0 min 0 W/m 0,0 km/h (0 Bft) 97,87 %
06.01.2020 06:58 5,8 C 5,0 C 4,4 C 86 % 1029,8 hPa 0,0 l/m 0 min 0 min 0 W/m 0,0 km/h (0 Bft) 100,00 %
06.01.2020 07:00 5,8 C 5,0 C 4,4 C 86 % 1029,8 hPa 0,0 l/m 0 min 0 min 0 W/m 0,0 km/h (0 Bft) 100,00 %
06.01.2020 07:02 5,8 C 5,0 C 4,4 C 86 % 1029,8 hPa 0,0 l/m 0 min 0 min 0 W/m 0,0 km/h (0 Bft) 97,87 %
06.01.2020 07:04 5,8 C 5,0 C 4,4 C 86 % 1029,8 hPa 0,0 l/m 0 min 0 min 0 W/m 0,0 km/h (0 Bft) 97,87 %
06.01.2020 07:06 5,8 C 5,0 C 4,4 C 86 % 1029,8 hPa 0,0 l/m 0 min 0 min 0 W/m 0,0 km/h (0 Bft) 97,87 %
06.01.2020 07:08 5,8 C 5,0 C 4,4 C 86 % 1029,8 hPa 0,0 l/m 0 min 0 min 0 W/m 0,0 km/h (0 Bft) 100,00 %
06.01.2020 07:10 5,8 C 5,0 C 4,4 C 87 % 1029,8 hPa 0,0 l/m 0 min 0 min 0 W/m 0,0 km/h (0 Bft) 100,00 %
06.01.2020 07:12 5,8 C 5,0 C 4,4 C 87 % 1029,8 hPa 0,0 l/m 0 min 0 min 0 W/m 3,2 km/h (1 Bft) 95,74 %
06.01.2020 07:14 5,8 C 5,0 C 4,4 C 87 % 1029,8 hPa 0,0 l/m 0 min 0 min 0 W/m 0,0 km/h (0 Bft) 100,00 %
06.01.2020 07:16 5,8 C 5,0 C 4,4 C 87 % 1029,8 hPa 0,0 l/m 0 min 0 min 0 W/m 0,0 km/h (0 Bft) 100,00 %
06.01.2020 07:18 5,8 C 5,0 C 4,4 C 87 % 1029,7 hPa 0,0 l/m 0 min 0 min 0 W/m 0,0 km/h (0 Bft) 97,87 %
06.01.2020 07:20 5,8 C 5,0 C 4,4 C 87 % 1029,7 hPa 0,0 l/m 0 min 0 min 0 W/m 0,0 km/h (0 Bft) 100,00 %
06.01.2020 07:22 5,8 C 5,0 C 4,4 C 86 % 1029,7 hPa 0,0 l/m 0 min 0 min 0 W/m 0,0 km/h (0 Bft) 100,00 %
06.01.2020 07:24 5,8 C 5,0 C 4,4 C 87 % 1029,8 hPa 0,0 l/m 0 min 0 min 0 W/m 0,0 km/h (0 Bft) 100,00 %
06.01.2020 07:26 5,8 C 5,0 C 4,4 C 87 % 1029,8 hPa 0,0 l/m 0 min 0 min 0 W/m 0,0 km/h (0 Bft) 100,00 %
06.01.2020 07:28 5,8 C 5,0 C 4,4 C 87 % 1029,7 hPa 0,0 l/m 0 min 0 min 0 W/m 0,0 km/h (0 Bft) 100,00 %
06.01.2020 07:30 5,8 C 5,0 C 4,4 C 87 % 1029,7 hPa 0,0 l/m 0 min 0 min 0 W/m 0,0 km/h (0 Bft) 97,87 %
06.01.2020 07:32 5,8 C 5,0 C 4,4 C 87 % 1029,7 hPa 0,0 l/m 0 min 0 min 0 W/m 0,0 km/h (0 Bft) 100,00 %
06.01.2020 07:34 5,8 C 5,0 C 4,4 C 87 % 1029,8 hPa 0,0 l/m 0 min 0 min 0 W/m 0,0 km/h (0 Bft) 95,65 %
06.01.2020 07:36 5,8 C 5,0 C 4,4 C 87 % 1029,8 hPa 0,0 l/m 0 min 0 min 0 W/m 3,2 km/h (1 Bft) 97,87 %
06.01.2020 07:38 5,7 C 5,0 C 4,4 C 87 % 1029,8 hPa 0,0 l/m 0 min 0 min 0 W/m 0,0 km/h (0 Bft) 97,87 %
06.01.2020 07:40 5,7 C 5,0 C 4,4 C 87 % 1029,8 hPa 0,0 l/m 0 min 0 min 0 W/m 0,0 km/h (0 Bft) 100,00 %
06.01.2020 07:42 5,7 C 5,0 C 4,4 C 87 % 1029,7 hPa 0,0 l/m 0 min 0 min 0 W/m 0,0 km/h (0 Bft) 100,00 %
06.01.2020 07:44 5,7 C 5,0 C 4,4 C 87 % 1029,7 hPa 0,0 l/m 0 min 0 min 0 W/m 0,0 km/h (0 Bft) 100,00 %
06.01.2020 07:46 5,7 C 5,0 C 4,4 C 87 % 1029,7 hPa 0,0 l/m 0 min 0 min 0 W/m 0,0 km/h (0 Bft) 100,00 %
06.01.2020 07:48 5,7 C 5,0 C 4,4 C 87 % 1029,7 hPa 0,0 l/m 0 min 0 min 0 W/m 0,0 km/h (0 Bft) 100,00 %
06.01.2020 07:50 5,7 C 5,0 C 4,4 C 87 % 1029,7 hPa 0,0 l/m 0 min 0 min 0 W/m 0,0 km/h (0 Bft) 97,87 %
06.01.2020 07:52 5,7 C 5,0 C 4,4 C 87 % 1029,7 hPa 0,0 l/m 0 min 0 min 0 W/m 16,1 km/h (3 Bft) 97,87 %
06.01.2020 07:54 5,7 C 5,0 C 4,4 C 87 % 1029,7 hPa 0,0 l/m 0 min 0 min 0 W/m 0,0 km/h (0 Bft) 100,00 %
06.01.2020 07:56 5,7 C 5,0 C 4,4 C 87 % 1029,7 hPa 0,0 l/m 0 min 0 min 0 W/m 0,0 km/h (0 Bft) 100,00 %
06.01.2020 07:58 5,7 C 5,0 C 4,4 C 87 % 1029,7 hPa 0,0 l/m 0 min 0 min 0 W/m 0,0 km/h (0 Bft) 100,00 %
06.01.2020 08:00 5,7 C 5,0 C 4,4 C 87 % 1029,7 hPa 0,0 l/m 0 min 0 min 0 W/m 3,2 km/h (1 Bft) 97,87 %
06.01.2020 08:02 5,7 C 5,0 C 4,4 C 87 % 1029,6 hPa 0,0 l/m 0 min 0 min 0 W/m 0,0 km/h (0 Bft) 97,87 %
06.01.2020 08:04 5,7 C 5,0 C 4,4 C 87 % 1029,6 hPa 0,0 l/m 0 min 0 min 0 W/m 0,0 km/h (0 Bft) 100,00 %
06.01.2020 08:06 5,7 C 5,0 C 4,4 C 87 % 1029,6 hPa 0,0 l/m 0 min 0 min 0 W/m 0,0 km/h (0 Bft) 100,00 %
06.01.2020 08:08 5,6 C 5,0 C 4,4 C 87 % 1029,7 hPa 0,0 l/m 0 min 0 min 0 W/m 3,2 km/h (1 Bft) 95,65 %
06.01.2020 08:10 5,6 C 5,0 C 4,4 C 87 % 1029,6 hPa 0,0 l/m 0 min 0 min 0 W/m 0,0 km/h (0 Bft) 100,00 %
06.01.2020 08:12 5,6 C 5,0 C 4,4 C 87 % 1029,6 hPa 0,0 l/m 0 min 0 min 0 W/m 0,0 km/h (0 Bft) 97,87 %
06.01.2020 08:14 5,6 C 5,0 C 4,4 C 87 % 1029,6 hPa 0,0 l/m 0 min 0 min 0 W/m 0,0 km/h (0 Bft) 89,36 %
06.01.2020 08:16 5,6 C 5,0 C 4,4 C 87 % 1029,6 hPa 0,0 l/m 0 min 0 min 0 W/m 0,0 km/h (0 Bft) 95,74 %
06.01.2020 08:18 5,6 C 5,0 C 4,4 C 87 % 1029,6 hPa 0,0 l/m 0 min 0 min 0 W/m 0,0 km/h (0 Bft) 95,74 %
06.01.2020 08:20 5,6 C 5,0 C 4,4 C 87 % 1029,6 hPa 0,0 l/m 0 min 0 min 0 W/m 0,0 km/h (0 Bft) 95,65 %
06.01.2020 08:22 5,6 C 5,0 C 4,4 C 87 % 1029,6 hPa 0,0 l/m 0 min 0 min 0 W/m 0,0 km/h (0 Bft) 95,74 %
06.01.2020 08:24 5,6 C 5,0 C 4,4 C 87 % 1029,5 hPa 0,0 l/m 0 min 0 min 0 W/m 0,0 km/h (0 Bft) 95,74 %
06.01.2020 08:26 5,6 C 5,0 C 4,4 C 87 % 1029,5 hPa 0,0 l/m 0 min 0 min 0 W/m 0,0 km/h (0 Bft) 95,74 %
06.01.2020 08:28 5,6 C 5,0 C 4,4 C 87 % 1029,5 hPa 0,0 l/m 0 min 0 min 0 W/m 0,0 km/h (0 Bft) 95,74 %
06.01.2020 08:30 5,6 C 5,0 C 4,4 C 87 % 1029,6 hPa 0,0 l/m 0 min 0 min 0 W/m 3,2 km/h (1 Bft) 95,74 %
06.01.2020 08:32 5,6 C 5,0 C 4,4 C 87 % 1029,6 hPa 0,0 l/m 0 min 0 min 0 W/m 0,0 km/h (0 Bft) 95,65 %
06.01.2020 08:34 5,6 C 5,0 C 4,4 C 87 % 1029,5 hPa 0,0 l/m 0 min 0 min 0 W/m 3,2 km/h (1 Bft) 95,74 %
06.01.2020 08:36 5,6 C 5,0 C 4,4 C 87 % 1029,5 hPa 0,0 l/m 0 min 0 min 0 W/m 0,0 km/h (0 Bft) 95,74 %
06.01.2020 08:38 5,6 C 5,0 C 4,4 C 86 % 1029,5 hPa 0,0 l/m 0 min 0 min 0 W/m 0,0 km/h (0 Bft) 95,74 %
06.01.2020 08:40 5,6 C 5,0 C 4,4 C 86 % 1029,5 hPa 0,0 l/m 0 min 0 min 0 W/m 0,0 km/h (0 Bft) 95,74 %
06.01.2020 08:42 5,6 C 5,0 C 4,4 C 86 % 1029,6 hPa 0,0 l/m 0 min 0 min 0 W/m 0,0 km/h (0 Bft) 93,62 %
06.01.2020 08:44 5,6 C 5,0 C 4,4 C 86 % 1029,5 hPa 0,0 l/m 0 min 0 min 0 W/m 3,2 km/h (1 Bft) 95,65 %
06.01.2020 08:46 5,6 C 5,0 C 4,4 C 86 % 1029,5 hPa 0,0 l/m 0 min 0 min 0 W/m 3,2 km/h (1 Bft) 95,74 %
06.01.2020 08:48 5,6 C 5,0 C 4,4 C 86 % 1029,5 hPa 0,0 l/m 0 min 0 min 0 W/m 0,0 km/h (0 Bft) 95,74 %
06.01.2020 08:50 5,6 C 5,0 C 4,4 C 86 % 1029,5 hPa 0,0 l/m 0 min 0 min 5 W/m 6,4 km/h (2 Bft) 93,62 %
06.01.2020 08:52 5,6 C 5,0 C 4,4 C 86 % 1029,5 hPa 0,0 l/m 0 min 0 min 5 W/m 12,9 km/h (3 Bft) 95,74 %
06.01.2020 08:54 5,5 C 5,0 C 4,4 C 86 % 1029,4 hPa 0,0 l/m 0 min 0 min 5 W/m 0,0 km/h (0 Bft) 91,49 %
06.01.2020 08:56 5,5 C 5,0 C 4,4 C 86 % 1029,5 hPa 0,0 l/m 0 min 0 min 5 W/m 3,2 km/h (1 Bft) 53,33 %
06.01.2020 08:58 5,5 C 5,0 C 4,4 C 86 % 1029,4 hPa 0,0 l/m 0 min 0 min 7 W/m 0,0 km/h (0 Bft) 93,62 %
06.01.2020 09:00 5,5 C 5,0 C 4,4 C 86 % 1029,4 hPa 0,0 l/m 0 min 0 min 7 W/m 0,0 km/h (0 Bft) 91,49 %
06.01.2020 09:02 5,5 C 5,0 C 4,4 C 86 % 1029,4 hPa 0,0 l/m 0 min 0 min 7 W/m 0,0 km/h (0 Bft) 95,74 %
06.01.2020 09:04 5,5 C 5,0 C 4,4 C 86 % 1029,4 hPa 0,0 l/m 0 min 0 min 8 W/m 0,0 km/h (0 Bft) 95,74 %
06.01.2020 09:06 5,5 C 5,0 C 4,4 C 86 % 1029,4 hPa 0,0 l/m 0 min 0 min 9 W/m 0,0 km/h (0 Bft) 95,65 %
06.01.2020 09:08 5,5 C 5,0 C 4,4 C 86 % 1029,4 hPa 0,0 l/m 0 min 0 min 11 W/m 0,0 km/h (0 Bft) 93,62 %
06.01.2020 09:10 5,5 C 5,0 C 4,4 C 86 % 1029,4 hPa 0,0 l/m 0 min 0 min 11 W/m 0,0 km/h (0 Bft) 95,74 %
06.01.2020 09:12 5,5 C 5,0 C 4,4 C 86 % 1029,3 hPa 0,0 l/m 0 min 0 min 11 W/m 0,0 km/h (0 Bft) 97,87 %
06.01.2020 09:14 5,5 C 5,0 C 4,4 C 86 % 1029,3 hPa 0,0 l/m 0 min 0 min 12 W/m 6,4 km/h (2 Bft) 97,87 %
06.01.2020 09:16 5,5 C 5,0 C 4,4 C 86 % 1029,3 hPa 0,0 l/m 0 min 0 min 14 W/m 0,0 km/h (0 Bft) 95,74 %
06.01.2020 09:18 5,5 C 5,0 C 4,4 C 86 % 1029,2 hPa 0,0 l/m 0 min 0 min 14 W/m 0,0 km/h (0 Bft) 97,83 %
06.01.2020 09:20 5,4 C 5,0 C 4,4 C 86 % 1029,3 hPa 0,0 l/m 0 min 0 min 16 W/m 0,0 km/h (0 Bft) 97,87 %
06.01.2020 09:22 5,5 C 5,0 C 4,4 C 86 % 1029,3 hPa 0,0 l/m 0 min 0 min 17 W/m 6,4 km/h (2 Bft) 97,87 %
06.01.2020 09:24 5,4 C 5,0 C 4,4 C 86 % 1029,3 hPa 0,0 l/m 0 min 0 min 18 W/m 0,0 km/h (0 Bft) 97,87 %
06.01.2020 09:26 5,4 C 5,0 C 4,4 C 86 % 1029,2 hPa 0,0 l/m 0 min 0 min 19 W/m 3,2 km/h (1 Bft) 95,74 %
06.01.2020 09:28 5,4 C 5,0 C 4,4 C 86 % 1029,2 hPa 0,0 l/m 0 min 0 min 20 W/m 0,0 km/h (0 Bft) 95,74 %
06.01.2020 09:30 5,4 C 5,0 C 4,4 C 86 % 1029,3 hPa 0,0 l/m 0 min 0 min 22 W/m 0,0 km/h (0 Bft) 97,83 %
06.01.2020 09:32 5,4 C 5,0 C 4,4 C 86 % 1029,2 hPa 0,0 l/m 0 min 0 min 24 W/m 0,0 km/h (0 Bft) 97,87 %
06.01.2020 09:34 5,4 C 5,0 C 4,4 C 86 % 1029,2 hPa 0,0 l/m 0 min 0 min 25 W/m 0,0 km/h (0 Bft) 95,74 %
06.01.2020 09:36 5,4 C 5,0 C 4,4 C 86 % 1029,2 hPa 0,0 l/m 0 min 0 min 26 W/m 0,0 km/h (0 Bft) 100,00 %
06.01.2020 09:38 5,4 C 5,0 C 4,4 C 86 % 1029,2 hPa 0,0 l/m 0 min 0 min 26 W/m 0,0 km/h (0 Bft) 100,00 %
06.01.2020 09:40 5,4 C 5,0 C 4,4 C 86 % 1029,2 hPa 0,0 l/m 0 min 0 min 28 W/m 0,0 km/h (0 Bft) 97,87 %
06.01.2020 09:42 5,4 C 5,0 C 4,4 C 86 % 1029,2 hPa 0,0 l/m 0 min 0 min 28 W/m 0,0 km/h (0 Bft) 95,65 %
06.01.2020 09:44 5,4 C 5,0 C 4,4 C 86 % 1029,2 hPa 0,0 l/m 0 min 0 min 30 W/m 0,0 km/h (0 Bft) 93,62 %
06.01.2020 09:46 5,4 C 5,0 C 4,4 C 86 % 1029,1 hPa 0,0 l/m 0 min 0 min 31 W/m 3,2 km/h (1 Bft) 100,00 %
06.01.2020 09:48 5,4 C 5,0 C 4,4 C 86 % 1029,1 hPa 0,0 l/m 0 min 0 min 32 W/m 12,9 km/h (3 Bft) 97,87 %
06.01.2020 09:50 5,4 C 5,0 C 4,4 C 86 % 1029,1 hPa 0,0 l/m 0 min 0 min 35 W/m 0,0 km/h (0 Bft) 100,00 %
06.01.2020 09:52 5,4 C 5,0 C 4,4 C 86 % 1029,1 hPa 0,0 l/m 0 min 0 min 37 W/m 6,4 km/h (2 Bft) 100,00 %
06.01.2020 09:54 5,4 C 5,0 C 4,4 C 86 % 1029,0 hPa 0,0 l/m 0 min 0 min 37 W/m 6,4 km/h (2 Bft) 100,00 %
06.01.2020 09:56 5,4 C 5,0 C 4,4 C 86 % 1029,0 hPa 0,0 l/m 0 min 0 min 39 W/m 12,9 km/h (3 Bft) 100,00 %
06.01.2020 09:58 5,4 C 5,0 C 4,4 C 86 % 1029,1 hPa 0,0 l/m 0 min 0 min 41 W/m 12,9 km/h (3 Bft) 100,00 %
06.01.2020 10:00 5,4 C 5,0 C 4,4 C 85 % 1029,0 hPa 0,0 l/m 0 min 0 min 44 W/m 16,1 km/h (3 Bft) 100,00 %
06.01.2020 10:02 5,4 C 5,0 C 4,4 C 85 % 1029,0 hPa 0,0 l/m 0 min 0 min 44 W/m 3,2 km/h (1 Bft) 97,87 %
06.01.2020 10:04 5,4 C 5,0 C 4,4 C 85 % 1029,0 hPa 0,0 l/m 0 min 0 min 46 W/m 0,0 km/h (0 Bft) 100,00 %
06.01.2020 10:06 5,4 C 5,0 C 4,4 C 85 % 1029,0 hPa 0,0 l/m 0 min 0 min 48 W/m 3,2 km/h (1 Bft) 100,00 %
06.01.2020 10:08 5,4 C 5,0 C 4,4 C 85 % 1029,0 hPa 0,0 l/m 0 min 0 min 49 W/m 9,7 km/h (2 Bft) 100,00 %
06.01.2020 10:10 5,4 C 5,0 C 4,4 C 85 % 1029,0 hPa 0,0 l/m 0 min 0 min 49 W/m 0,0 km/h (0 Bft) 100,00 %
06.01.2020 10:12 5,4 C 5,0 C 4,4 C 85 % 1029,0 hPa 0,0 l/m 0 min 0 min 48 W/m 3,2 km/h (1 Bft) 100,00 %
06.01.2020 10:14 5,4 C 5,0 C 4,4 C 85 % 1029,0 hPa 0,0 l/m 0 min 0 min 46 W/m 6,4 km/h (2 Bft) 100,00 %
06.01.2020 10:16 5,4 C 5,0 C 4,4 C 85 % 1029,0 hPa 0,0 l/m 0 min 0 min 46 W/m 3,2 km/h (1 Bft) 100,00 %
06.01.2020 10:18 5,4 C 5,0 C 4,4 C 85 % 1029,1 hPa 0,0 l/m 0 min 0 min 47 W/m 19,3 km/h (3 Bft) 100,00 %
06.01.2020 10:20 5,4 C 5,0 C 4,4 C 85 % 1029,0 hPa 0,0 l/m 0 min 0 min 49 W/m 16,1 km/h (3 Bft) 100,00 %
06.01.2020 10:22 5,4 C 5,0 C 4,4 C 84 % 1029,0 hPa 0,0 l/m 0 min 0 min 52 W/m 3,2 km/h (1 Bft) 100,00 %
06.01.2020 10:24 5,4 C 5,0 C 4,4 C 84 % 1029,0 hPa 0,0 l/m 0 min 0 min 54 W/m 16,1 km/h (3 Bft) 100,00 %
06.01.2020 10:26 5,4 C 5,0 C 4,4 C 84 % 1029,0 hPa 0,0 l/m 0 min 0 min 57 W/m 16,1 km/h (3 Bft) 97,87 %
06.01.2020 10:28 5,4 C 5,0 C 4,4 C 84 % 1028,9 hPa 0,0 l/m 0 min 0 min 61 W/m 16,1 km/h (3 Bft) 100,00 %
06.01.2020 10:30 5,4 C 5,0 C 4,4 C 84 % 1028,9 hPa 0,0 l/m 0 min 0 min 63 W/m 16,1 km/h (3 Bft) 100,00 %
06.01.2020 10:32 5,4 C 5,0 C 4,4 C 84 % 1028,9 hPa 0,0 l/m 0 min 0 min 65 W/m 3,2 km/h (1 Bft) 100,00 %
06.01.2020 10:34 5,4 C 5,0 C 4,4 C 84 % 1028,9 hPa 0,0 l/m 0 min 0 min 69 W/m 6,4 km/h (2 Bft) 100,00 %
06.01.2020 10:36 5,4 C 5,0 C 4,4 C 84 % 1028,8 hPa 0,0 l/m 0 min 0 min 71 W/m 22,5 km/h (4 Bft) 100,00 %
06.01.2020 10:38 5,4 C 5,0 C 4,4 C 84 % 1028,8 hPa 0,0 l/m 0 min 0 min 75 W/m 16,1 km/h (3 Bft) 97,87 %
06.01.2020 10:40 5,4 C 5,0 C 4,4 C 84 % 1028,8 hPa 0,0 l/m 0 min 0 min 76 W/m 3,2 km/h (1 Bft) 97,83 %
06.01.2020 10:42 5,4 C 5,0 C 5,0 C 84 % 1028,8 hPa 0,0 l/m 0 min 0 min 80 W/m 0,0 km/h (0 Bft) 100,00 %
06.01.2020 10:44 5,4 C 5,6 C 5,0 C 84 % 1028,7 hPa 0,0 l/m 0 min 0 min 81 W/m 0,0 km/h (0 Bft) 95,74 %
06.01.2020 10:46 5,4 C 5,6 C 5,0 C 84 % 1028,7 hPa 0,0 l/m 0 min 0 min 89 W/m 0,0 km/h (0 Bft) 100,00 %
06.01.2020 10:48 5,5 C 5,6 C 5,0 C 84 % 1028,7 hPa 0,0 l/m 0 min 0 min 91 W/m 0,0 km/h (0 Bft) 97,87 %
06.01.2020 10:50 5,5 C 5,6 C 5,0 C 84 % 1028,7 hPa 0,0 l/m 0 min 0 min 89 W/m 0,0 km/h (0 Bft) 97,87 %
06.01.2020 10:52 5,5 C 5,6 C 5,0 C 84 % 1028,6 hPa 0,0 l/m 0 min 0 min 94 W/m 0,0 km/h (0 Bft) 100,00 %
06.01.2020 10:54 5,5 C 5,6 C 5,0 C 84 % 1028,6 hPa 0,0 l/m 0 min 0 min 101 W/m 0,0 km/h (0 Bft) 100,00 %
06.01.2020 10:56 5,5 C 5,6 C 5,0 C 84 % 1028,5 hPa 0,0 l/m 0 min 0 min 110 W/m 3,2 km/h (1 Bft) 97,87 %
06.01.2020 10:58 5,5 C 5,6 C 5,0 C 84 % 1028,5 hPa 0,0 l/m 0 min 0 min 106 W/m 0,0 km/h (0 Bft) 97,87 %
06.01.2020 11:00 5,5 C 5,6 C 5,0 C 84 % 1028,5 hPa 0,0 l/m 0 min 0 min 102 W/m 12,9 km/h (3 Bft) 97,87 %
06.01.2020 11:02 5,5 C 5,6 C 5,0 C 84 % 1028,4 hPa 0,0 l/m 0 min 0 min 95 W/m 25,7 km/h (4 Bft) 97,83 %
06.01.2020 11:04 5,5 C 5,6 C 5,0 C 83 % 1028,4 hPa 0,0 l/m 0 min 0 min 106 W/m 29,0 km/h (5 Bft) 97,87 %
06.01.2020 11:06 5,5 C 5,6 C 4,4 C 83 % 1028,3 hPa 0,0 l/m 0 min 0 min 105 W/m 22,5 km/h (4 Bft) 97,87 %
06.01.2020 11:08 5,5 C 5,6 C 5,0 C 83 % 1028,3 hPa 0,0 l/m 0 min 0 min 107 W/m 3,2 km/h (1 Bft) 97,87 %
06.01.2020 11:10 5,5 C 5,6 C 5,0 C 83 % 1028,2 hPa 0,0 l/m 0 min 0 min 114 W/m 12,9 km/h (3 Bft) 95,74 %
06.01.2020 11:12 5,5 C 5,6 C 5,0 C 83 % 1028,3 hPa 0,0 l/m 0 min 0 min 113 W/m 19,3 km/h (3 Bft) 97,87 %
06.01.2020 11:14 5,5 C 5,6 C 5,0 C 83 % 1028,3 hPa 0,0 l/m 0 min 0 min 124 W/m 19,3 km/h (3 Bft) 97,83 %
06.01.2020 11:16 5,5 C 5,6 C 5,0 C 83 % 1028,2 hPa 0,0 l/m 0 min 0 min 116 W/m 12,9 km/h (3 Bft) 97,87 %
06.01.2020 11:18 5,5 C 5,6 C 5,0 C 83 % 1028,2 hPa 0,0 l/m 0 min 0 min 117 W/m 0,0 km/h (0 Bft) 97,87 %
06.01.2020 11:20 5,5 C 5,6 C 5,0 C 83 % 1028,2 hPa 0,0 l/m 0 min 0 min 123 W/m 3,2 km/h (1 Bft) 95,74 %
06.01.2020 11:22 5,6 C 5,6 C 5,0 C 83 % 1028,1 hPa 0,0 l/m 0 min 0 min 124 W/m 19,3 km/h (3 Bft) 95,74 %
06.01.2020 11:24 5,6 C 6,1 C 5,0 C 83 % 1028,0 hPa 0,0 l/m 0 min 0 min 128 W/m 0,0 km/h (0 Bft) 95,74 %
06.01.2020 11:26 5,6 C 6,1 C 5,0 C 83 % 1028,0 hPa 0,0 l/m 0 min 0 min 127 W/m 12,9 km/h (3 Bft) 76,09 %
06.01.2020 11:28 5,6 C 6,1 C 5,0 C 83 % 1027,9 hPa 0,0 l/m 0 min 0 min 125 W/m 0,0 km/h (0 Bft) 70,00 %
06.01.2020 11:30 5,6 C 6,1 C 5,0 C 83 % 1027,9 hPa 0,0 l/m 0 min 0 min 124 W/m 3,2 km/h (1 Bft) 93,62 %
06.01.2020 11:32 5,6 C 6,1 C 5,0 C 83 % 1027,9 hPa 0,0 l/m 0 min 0 min 118 W/m 16,1 km/h (3 Bft) 93,62 %
06.01.2020 11:34 5,6 C 6,1 C 5,0 C 83 % 1027,9 hPa 0,0 l/m 0 min 0 min 120 W/m 3,2 km/h (1 Bft) 91,49 %
06.01.2020 11:36 5,6 C 6,1 C 5,0 C 83 % 1027,9 hPa 0,0 l/m 0 min 0 min 134 W/m 0,0 km/h (0 Bft) 91,49 %
06.01.2020 11:38 5,6 C 6,1 C 5,0 C 83 % 1027,9 hPa 0,0 l/m 0 min 0 min 143 W/m 0,0 km/h (0 Bft) 93,48 %
06.01.2020 11:40 5,7 C 7,2 C 5,0 C 82 % 1027,9 hPa 0,0 l/m 2 min 0 min 294 W/m 16,1 km/h (3 Bft) 91,49 %
06.01.2020 11:42 5,7 C 7,2 C 5,0 C 82 % 1027,9 hPa 0,0 l/m 2 min 0 min 241 W/m 16,1 km/h (3 Bft) 89,36 %
06.01.2020 11:44 5,7 C 7,2 C 5,0 C 82 % 1027,8 hPa 0,0 l/m 2 min 0 min 202 W/m 12,9 km/h (3 Bft) 93,62 %
06.01.2020 11:46 5,7 C 7,2 C 5,0 C 82 % 1027,8 hPa 0,0 l/m 2 min 0 min 178 W/m 12,9 km/h (3 Bft) 93,62 %
06.01.2020 11:48 5,8 C 7,2 C 5,0 C 82 % 1027,7 hPa 0,0 l/m 2 min 0 min 187 W/m 3,2 km/h (1 Bft) 93,62 %
06.01.2020 11:50 5,8 C 8,3 C 5,0 C 82 % 1027,7 hPa 0,0 l/m 2 min 0 min 225 W/m 3,2 km/h (1 Bft) 93,48 %
06.01.2020 11:52 5,8 C 8,9 C 5,0 C 82 % 1027,7 hPa 0,0 l/m 2 min 0 min 221 W/m 3,2 km/h (1 Bft) 93,62 %
06.01.2020 11:54 5,9 C 8,9 C 5,0 C 82 % 1027,6 hPa 0,0 l/m 2 min 0 min 235 W/m 0,0 km/h (0 Bft) 93,62 %
06.01.2020 11:56 6,0 C 9,4 C 5,0 C 81 % 1027,6 hPa 0,0 l/m 0 min 0 min 148 W/m 0,0 km/h (0 Bft) 95,74 %
06.01.2020 11:58 6,1 C 10,0 C 5,0 C 81 % 1027,5 hPa 0,0 l/m 2 min 0 min 292 W/m 0,0 km/h (0 Bft) 95,74 %
06.01.2020 12:00 6,1 C 10,0 C 5,0 C 81 % 1027,5 hPa 0,0 l/m 2 min 0 min 310 W/m 19,3 km/h (3 Bft) 93,62 %
06.01.2020 12:02 6,2 C 9,4 C 5,0 C 81 % 1027,5 hPa 0,0 l/m 2 min 0 min 299 W/m 25,7 km/h (4 Bft) 95,65 %
06.01.2020 12:04 6,2 C 9,4 C 5,0 C 80 % 1027,5 hPa 0,0 l/m 2 min 0 min 283 W/m 29,0 km/h (5 Bft) 97,87 %
06.01.2020 12:06 6,3 C 8,9 C 5,0 C 80 % 1027,4 hPa 0,0 l/m 2 min 0 min 299 W/m 25,7 km/h (4 Bft) 97,87 %
06.01.2020 12:08 6,3 C 7,8 C 5,0 C 80 % 1027,4 hPa 0,0 l/m 2 min 0 min 300 W/m 19,3 km/h (3 Bft) 95,74 %
06.01.2020 12:10 6,4 C 7,8 C 5,0 C 80 % 1027,3 hPa 0,0 l/m 2 min 0 min 290 W/m 3,2 km/h (1 Bft) 97,87 %
06.01.2020 12:12 6,4 C 7,8 C 5,0 C 80 % 1027,3 hPa 0,0 l/m 2 min 0 min 288 W/m 6,4 km/h (2 Bft) 100,00 %
06.01.2020 12:14 6,5 C 8,9 C 5,0 C 80 % 1027,3 hPa 0,0 l/m 2 min 0 min 294 W/m 16,1 km/h (3 Bft) 97,83 %
06.01.2020 12:16 6,5 C 8,9 C 5,0 C 79 % 1027,3 hPa 0,0 l/m 2 min 0 min 294 W/m 3,2 km/h (1 Bft) 100,00 %
06.01.2020 12:18 6,5 C 10,0 C 5,0 C 79 % 1027,2 hPa 0,0 l/m 2 min 0 min 295 W/m 0,0 km/h (0 Bft) 100,00 %
06.01.2020 12:20 6,6 C 10,6 C 5,6 C 79 % 1027,2 hPa 0,0 l/m 2 min 0 min 295 W/m 3,2 km/h (1 Bft) 100,00 %
06.01.2020 12:22 6,6 C 11,1 C 5,6 C 80 % 1027,2 hPa 0,0 l/m 2 min 0 min 297 W/m 0,0 km/h (0 Bft) 100,00 %
06.01.2020 12:24 6,7 C 11,7 C 6,1 C 80 % 1027,2 hPa 0,0 l/m 2 min 0 min 299 W/m 3,2 km/h (1 Bft) 97,83 %
06.01.2020 12:26 6,7 C 11,7 C 6,7 C 79 % 1027,1 hPa 0,0 l/m 2 min 0 min 301 W/m 0,0 km/h (0 Bft) 100,00 %
06.01.2020 12:28 6,8 C 10,6 C 7,2 C 79 % 1027,1 hPa 0,0 l/m 2 min 0 min 302 W/m 0,0 km/h (0 Bft) 97,87 %
06.01.2020 12:30 6,9 C 10,6 C 7,8 C 79 % 1027,0 hPa 0,0 l/m 2 min 0 min 302 W/m 6,4 km/h (2 Bft) 100,00 %
06.01.2020 12:32 6,9 C 10,6 C 8,3 C 78 % 1027,0 hPa 0,0 l/m 2 min 0 min 302 W/m 25,7 km/h (4 Bft) 100,00 %
06.01.2020 12:34 7,0 C 10,6 C 8,9 C 78 % 1027,0 hPa 0,0 l/m 2 min 0 min 300 W/m 25,7 km/h (4 Bft) 100,00 %
06.01.2020 12:36 7,0 C 10,6 C 8,3 C 77 % 1027,0 hPa 0,0 l/m 2 min 0 min 300 W/m 22,5 km/h (4 Bft) 97,83 %
06.01.2020 12:38 7,1 C 10,0 C 7,2 C 77 % 1026,9 hPa 0,0 l/m 2 min 0 min 301 W/m 12,9 km/h (3 Bft) 100,00 %
06.01.2020 12:40 7,1 C 10,6 C 6,7 C 77 % 1026,8 hPa 0,0 l/m 2 min 0 min 301 W/m 12,9 km/h (3 Bft) 100,00 %
06.01.2020 12:42 7,2 C 10,6 C 6,1 C 77 % 1026,8 hPa 0,0 l/m 2 min 0 min 301 W/m 0,0 km/h (0 Bft) 100,00 %
06.01.2020 12:44 7,2 C 10,0 C 6,1 C 76 % 1026,8 hPa 0,0 l/m 2 min 0 min 301 W/m 25,7 km/h (4 Bft) 100,00 %
06.01.2020 12:46 7,2 C 10,6 C 5,6 C 76 % 1026,7 hPa 0,0 l/m 2 min 0 min 301 W/m 25,7 km/h (4 Bft) 100,00 %
06.01.2020 12:48 7,3 C 11,1 C 6,1 C 76 % 1026,8 hPa 0,0 l/m 2 min 0 min 301 W/m 0,0 km/h (0 Bft) 100,00 %
06.01.2020 12:50 7,3 C 11,1 C 5,6 C 76 % 1026,8 hPa 0,0 l/m 2 min 0 min 302 W/m 0,0 km/h (0 Bft) 100,00 %
06.01.2020 12:52 7,3 C 11,1 C 6,1 C 76 % 1026,7 hPa 0,0 l/m 2 min 0 min 301 W/m 16,1 km/h (3 Bft) 97,87 %
06.01.2020 12:54 7,4 C 10,6 C 5,6 C 76 % 1026,7 hPa 0,0 l/m 2 min 0 min 297 W/m 12,9 km/h (3 Bft) 100,00 %
06.01.2020 12:56 7,4 C 10,6 C 5,6 C 76 % 1026,6 hPa 0,0 l/m 2 min 0 min 299 W/m 16,1 km/h (3 Bft) 100,00 %
06.01.2020 12:58 7,4 C 10,6 C 5,6 C 75 % 1026,5 hPa 0,0 l/m 2 min 0 min 300 W/m 0,0 km/h (0 Bft) 100,00 %
06.01.2020 13:00 7,5 C 11,1 C 5,6 C 75 % 1026,5 hPa 0,0 l/m 2 min 0 min 301 W/m 22,5 km/h (4 Bft) 97,87 %
06.01.2020 13:02 7,5 C 11,1 C 5,6 C 75 % 1026,4 hPa 0,0 l/m 2 min 0 min 299 W/m 6,4 km/h (2 Bft) 100,00 %
06.01.2020 13:04 7,6 C 11,1 C 5,6 C 75 % 1026,3 hPa 0,0 l/m 2 min 0 min 299 W/m 19,3 km/h (3 Bft) 100,00 %
06.01.2020 13:06 7,6 C 11,7 C 5,6 C 75 % 1026,2 hPa 0,0 l/m 2 min 0 min 298 W/m 3,2 km/h (1 Bft) 100,00 %
06.01.2020 13:08 7,6 C 11,7 C 5,6 C 75 % 1026,2 hPa 0,0 l/m 2 min 0 min 297 W/m 0,0 km/h (0 Bft) 100,00 %
06.01.2020 13:10 7,6 C 11,7 C 5,6 C 75 % 1026,1 hPa 0,0 l/m 2 min 0 min 296 W/m 0,0 km/h (0 Bft) 100,00 %
06.01.2020 13:12 7,7 C 11,7 C 6,1 C 75 % 1026,1 hPa 0,0 l/m 2 min 0 min 295 W/m 0,0 km/h (0 Bft) 100,00 %
06.01.2020 13:14 7,7 C 11,1 C 6,1 C 74 % 1026,0 hPa 0,0 l/m 2 min 0 min 294 W/m 0,0 km/h (0 Bft) 100,00 %
06.01.2020 13:16 7,7 C 11,1 C 6,1 C 74 % 1026,0 hPa 0,0 l/m 2 min 0 min 294 W/m 0,0 km/h (0 Bft) 100,00 %
06.01.2020 13:18 7,7 C 10,6 C 6,1 C 74 % 1025,9 hPa 0,0 l/m 2 min 0 min 292 W/m 0,0 km/h (0 Bft) 100,00 %
06.01.2020 13:20 7,7 C 10,6 C 6,1 C 74 % 1025,9 hPa 0,0 l/m 2 min 0 min 290 W/m 0,0 km/h (0 Bft) 97,87 %
06.01.2020 13:22 7,8 C 11,1 C 6,1 C 74 % 1025,9 hPa 0,0 l/m 2 min 0 min 290 W/m 0,0 km/h (0 Bft) 97,83 %
06.01.2020 13:24 7,8 C 11,1 C 6,1 C 74 % 1025,9 hPa 0,0 l/m 2 min 0 min 290 W/m 16,1 km/h (3 Bft) 100,00 %
06.01.2020 13:26 7,8 C 10,6 C 6,1 C 74 % 1025,8 hPa 0,0 l/m 2 min 0 min 290 W/m 16,1 km/h (3 Bft) 54,35 %
06.01.2020 13:28 7,8 C 10,6 C 6,1 C 74 % 1025,8 hPa 0,0 l/m 2 min 0 min 288 W/m 22,5 km/h (4 Bft) 97,83 %
06.01.2020 13:30 7,8 C 10,6 C 6,1 C 74 % 1025,7 hPa 0,0 l/m 2 min 0 min 288 W/m 6,4 km/h (2 Bft) 97,87 %
06.01.2020 13:32 7,8 C 11,1 C 6,1 C 74 % 1025,7 hPa 0,0 l/m 2 min 0 min 287 W/m 0,0 km/h (0 Bft) 95,74 %
06.01.2020 13:34 7,8 C 11,1 C 6,1 C 74 % 1025,6 hPa 0,0 l/m 2 min 0 min 286 W/m 0,0 km/h (0 Bft) 97,83 %
06.01.2020 13:36 7,8 C 11,7 C 6,1 C 74 % 1025,6 hPa 0,0 l/m 2 min 0 min 283 W/m 0,0 km/h (0 Bft) 95,74 %
06.01.2020 13:38 7,8 C 11,7 C 6,1 C 74 % 1025,5 hPa 0,0 l/m 2 min 0 min 281 W/m 0,0 km/h (0 Bft) 93,62 %
06.01.2020 13:40 7,8 C 11,1 C 6,1 C 74 % 1025,5 hPa 0,0 l/m 2 min 0 min 281 W/m 0,0 km/h (0 Bft) 95,74 %
06.01.2020 13:42 7,9 C 11,1 C 6,1 C 74 % 1025,5 hPa 0,0 l/m 2 min 0 min 279 W/m 0,0 km/h (0 Bft) 95,74 %
06.01.2020 13:44 7,9 C 10,6 C 6,1 C 74 % 1025,4 hPa 0,0 l/m 2 min 0 min 278 W/m 0,0 km/h (0 Bft) 93,62 %
06.01.2020 13:46 7,9 C 10,6 C 6,1 C 74 % 1025,4 hPa 0,0 l/m 2 min 0 min 276 W/m 3,2 km/h (1 Bft) 95,65 %
06.01.2020 13:48 7,9 C 10,6 C 6,1 C 74 % 1025,4 hPa 0,0 l/m 2 min 0 min 275 W/m 16,1 km/h (3 Bft) 95,74 %
06.01.2020 13:50 7,8 C 10,6 C 6,1 C 73 % 1025,2 hPa 0,0 l/m 2 min 0 min 272 W/m 6,4 km/h (2 Bft) 95,74 %
06.01.2020 13:52 7,8 C 10,0 C 6,1 C 73 % 1025,3 hPa 0,0 l/m 2 min 0 min 271 W/m 19,3 km/h (3 Bft) 95,74 %
06.01.2020 13:54 7,8 C 10,6 C 6,1 C 73 % 1025,2 hPa 0,0 l/m 2 min 0 min 270 W/m 22,5 km/h (4 Bft) 93,62 %
06.01.2020 13:56 7,8 C 10,6 C 6,1 C 73 % 1025,2 hPa 0,0 l/m 2 min 0 min 265 W/m 0,0 km/h (0 Bft) 95,65 %
06.01.2020 13:58 7,8 C 10,6 C 6,1 C 74 % 1025,1 hPa 0,0 l/m 2 min 0 min 265 W/m 0,0 km/h (0 Bft) 91,49 %
06.01.2020 14:00 7,8 C 10,6 C 6,1 C 74 % 1025,1 hPa 0,0 l/m 2 min 0 min 263 W/m 0,0 km/h (0 Bft) 97,87 %
06.01.2020 14:02 7,8 C 11,1 C 6,1 C 74 % 1025,0 hPa 0,0 l/m 2 min 0 min 260 W/m 0,0 km/h (0 Bft) 95,74 %
06.01.2020 14:04 7,8 C 10,6 C 6,1 C 74 % 1025,0 hPa 0,0 l/m 2 min 0 min 258 W/m 0,0 km/h (0 Bft) 95,74 %
06.01.2020 14:06 7,8 C 10,6 C 6,1 C 75 % 1024,9 hPa 0,0 l/m 2 min 0 min 256 W/m 0,0 km/h (0 Bft) 95,74 %
06.01.2020 14:08 7,8 C 10,6 C 6,1 C 75 % 1024,8 hPa 0,0 l/m 2 min 0 min 254 W/m 0,0 km/h (0 Bft) 97,87 %
06.01.2020 14:10 7,8 C 10,6 C 6,1 C 75 % 1024,8 hPa 0,0 l/m 2 min 0 min 251 W/m 22,5 km/h (4 Bft) 95,65 %
06.01.2020 14:12 7,7 C 10,0 C 6,7 C 75 % 1024,8 hPa 0,0 l/m 2 min 0 min 249 W/m 16,1 km/h (3 Bft) 93,62 %
06.01.2020 14:14 7,7 C 10,0 C 6,7 C 75 % 1024,7 hPa 0,0 l/m 2 min 0 min 246 W/m 12,9 km/h (3 Bft) 100,00 %
06.01.2020 14:16 7,7 C 10,0 C 6,1 C 75 % 1024,6 hPa 0,0 l/m 2 min 0 min 244 W/m 0,0 km/h (0 Bft) 100,00 %
06.01.2020 14:20 7,6 C 10,0 C 5,6 C 75 % 1024,7 hPa 0,0 l/m 4 min 0 min 240 W/m 19,3 km/h (3 Bft) 100,00 %
06.01.2020 14:25 7,5 C 9,4 C 5,6 C 76 % 1024,7 hPa 0,0 l/m 5 min 0 min 232 W/m 22,5 km/h (4 Bft) 100,00 %
06.01.2020 14:30 7,4 C 9,4 C 5,6 C 76 % 1024,6 hPa 0,0 l/m 5 min 0 min 223 W/m 22,5 km/h (4 Bft) 100,00 %
06.01.2020 14:35 7,3 C 9,4 C 5,6 C 77 % 1024,6 hPa 0,0 l/m 5 min 0 min 215 W/m 19,3 km/h (3 Bft) 100,00 %
06.01.2020 14:40 7,3 C 10,0 C 5,6 C 77 % 1024,6 hPa 0,0 l/m 5 min 0 min 205 W/m 0,0 km/h (0 Bft) 100,00 %
06.01.2020 14:45 7,2 C 8,9 C 5,6 C 77 % 1024,5 hPa 0,0 l/m 5 min 0 min 196 W/m 3,2 km/h (1 Bft) 100,00 %
06.01.2020 14:50 7,1 C 6,7 C 5,6 C 77 % 1024,5 hPa 0,0 l/m 5 min 0 min 184 W/m 0,0 km/h (0 Bft) 100,00 %
06.01.2020 14:55 7,0 C 6,1 C 5,0 C 78 % 1024,3 hPa 0,0 l/m 5 min 0 min 118 W/m 3,2 km/h (1 Bft) 100,00 %
06.01.2020 15:00 6,9 C 6,1 C 5,0 C 78 % 1024,2 hPa 0,0 l/m 0 min 0 min 40 W/m 3,2 km/h (1 Bft) 100,00 %
06.01.2020 15:05 6,8 C 6,1 C 5,0 C 78 % 1024,0 hPa 0,0 l/m 0 min 0 min 37 W/m 3,2 km/h (1 Bft) 99,12 %
06.01.2020 15:10 6,7 C 6,1 C 5,0 C 79 % 1023,9 hPa 0,0 l/m 0 min 0 min 37 W/m 0,0 km/h (0 Bft) 100,00 %
06.01.2020 15:15 6,6 C 6,1 C 5,0 C 79 % 1023,9 hPa 0,0 l/m 0 min 0 min 29 W/m 19,3 km/h (3 Bft) 100,00 %
06.01.2020 15:20 6,6 C 6,1 C 5,0 C 79 % 1023,8 hPa 0,0 l/m 0 min 0 min 32 W/m 12,9 km/h (3 Bft) 100,00 %
06.01.2020 15:25 6,5 C 6,1 C 5,0 C 79 % 1023,7 hPa 0,0 l/m 0 min 0 min 33 W/m 0,0 km/h (0 Bft) 100,00 %
06.01.2020 15:30 6,5 C 6,1 C 5,0 C 79 % 1023,6 hPa 0,0 l/m 0 min 0 min 31 W/m 6,4 km/h (2 Bft) 100,00 %
06.01.2020 15:35 6,5 C 6,1 C 5,0 C 79 % 1023,5 hPa 0,0 l/m 0 min 0 min 30 W/m 16,1 km/h (3 Bft) 100,00 %
06.01.2020 15:40 6,5 C 6,1 C 5,0 C 80 % 1023,5 hPa 0,0 l/m 0 min 0 min 30 W/m 22,5 km/h (4 Bft) 100,00 %
06.01.2020 15:45 6,5 C 6,1 C 5,0 C 80 % 1023,4 hPa 0,0 l/m 0 min 0 min 33 W/m 0,0 km/h (0 Bft) 100,00 %
06.01.2020 15:50 6,4 C 6,1 C 5,0 C 80 % 1023,3 hPa 0,0 l/m 0 min 0 min 33 W/m 3,2 km/h (1 Bft) 100,00 %
06.01.2020 15:55 6,4 C 6,1 C 5,0 C 80 % 1023,2 hPa 0,0 l/m 0 min 0 min 35 W/m 0,0 km/h (0 Bft) 100,00 %
06.01.2020 16:00 6,4 C 5,6 C 5,0 C 80 % 1023,0 hPa 0,0 l/m 0 min 0 min 33 W/m 0,0 km/h (0 Bft) 100,00 %
06.01.2020 16:05 6,4 C 5,6 C 5,0 C 80 % 1023,0 hPa 0,0 l/m 0 min 0 min 30 W/m 0,0 km/h (0 Bft) 100,00 %
06.01.2020 16:10 6,3 C 5,6 C 5,0 C 80 % 1023,0 hPa 0,0 l/m 0 min 0 min 27 W/m 3,2 km/h (1 Bft) 100,00 %
06.01.2020 16:15 6,3 C 5,6 C 5,0 C 80 % 1022,9 hPa 0,0 l/m 0 min 0 min 23 W/m 0,0 km/h (0 Bft) 100,00 %
06.01.2020 16:20 6,3 C 5,6 C 5,0 C 80 % 1022,8 hPa 0,0 l/m 5 min 0 min 20 W/m 0,0 km/h (0 Bft) 93,86 %
06.01.2020 16:25 6,3 C 5,6 C 4,4 C 80 % 1022,7 hPa 0,0 l/m 0 min 0 min 17 W/m 3,2 km/h (1 Bft) 97,37 %
06.01.2020 16:30 6,2 C 5,6 C 4,4 C 81 % 1022,6 hPa 0,0 l/m 0 min 0 min 13 W/m 0,0 km/h (0 Bft) 95,61 %
06.01.2020 16:35 6,2 C 5,0 C 4,4 C 81 % 1022,6 hPa 0,0 l/m 0 min 0 min 11 W/m 6,4 km/h (2 Bft) 97,37 %
06.01.2020 16:40 6,1 C 5,0 C 4,4 C 81 % 1022,5 hPa 0,0 l/m 0 min 0 min 8 W/m 0,0 km/h (0 Bft) 91,23 %
06.01.2020 16:42 6,1 C 5,0 C 4,4 C 81 % 1022,5 hPa 0,0 l/m 0 min 0 min 5 W/m 0,0 km/h (0 Bft) 97,12 %
06.01.2020 16:44 6,1 C 5,0 C 4,4 C 81 % 1022,5 hPa 0,0 l/m 0 min 0 min 5 W/m 0,0 km/h (0 Bft) 88,71 %
06.01.2020 16:46 6,1 C 5,0 C 3,9 C 82 % 1022,5 hPa 0,0 l/m 0 min 0 min 5 W/m 0,0 km/h (0 Bft) 89,13 %
06.01.2020 16:48 6,0 C 5,0 C 4,4 C 82 % 1022,5 hPa 0,0 l/m 0 min 0 min 5 W/m 3,2 km/h (1 Bft) 93,62 %
06.01.2020 16:50 6,0 C 5,0 C 4,4 C 82 % 1022,6 hPa 0,0 l/m 0 min 0 min 5 W/m 0,0 km/h (0 Bft) 57,45 %
06.01.2020 16:52 5,9 C 5,0 C 4,4 C 82 % 1022,6 hPa 0,0 l/m 0 min 0 min 2 W/m 6,4 km/h (2 Bft) 92,11 %
06.01.2020 16:54 5,9 C 5,0 C 4,4 C 82 % 1022,6 hPa 0,0 l/m 0 min 0 min 0 W/m 3,2 km/h (1 Bft) 93,62 %
06.01.2020 16:56 5,9 C 5,0 C 3,9 C 82 % 1022,6 hPa 0,0 l/m 0 min 0 min 0 W/m 0,0 km/h (0 Bft) 93,62 %
06.01.2020 16:58 5,9 C 5,0 C 3,9 C 83 % 1022,6 hPa 0,0 l/m 0 min 0 min 0 W/m 3,2 km/h (1 Bft) 95,65 %
06.01.2020 17:00 5,8 C 5,0 C 4,4 C 83 % 1022,5 hPa 0,0 l/m 0 min 0 min 0 W/m 19,3 km/h (3 Bft) 97,87 %
06.01.2020 17:02 5,8 C 5,0 C 3,9 C 83 % 1022,5 hPa 0,0 l/m 0 min 0 min 0 W/m 0,0 km/h (0 Bft) 95,74 %
06.01.2020 17:04 5,8 C 5,0 C 3,9 C 83 % 1022,5 hPa 0,0 l/m 0 min 0 min 0 W/m 22,5 km/h (4 Bft) 93,62 %
06.01.2020 17:06 5,8 C 5,0 C 3,9 C 83 % 1022,5 hPa 0,0 l/m 0 min 0 min 0 W/m 0,0 km/h (0 Bft) 95,74 %
06.01.2020 17:08 5,8 C 5,0 C 3,9 C 83 % 1022,5 hPa 0,0 l/m 0 min 0 min 0 W/m 0,0 km/h (0 Bft) 93,62 %
06.01.2020 17:10 5,7 C 5,0 C 3,9 C 83 % 1022,5 hPa 0,0 l/m 0 min 0 min 0 W/m 0,0 km/h (0 Bft) 97,83 %
06.01.2020 17:12 5,7 C 5,0 C 3,9 C 83 % 1022,4 hPa 0,0 l/m 0 min 0 min 0 W/m 0,0 km/h (0 Bft) 93,62 %
06.01.2020 17:14 5,7 C 5,0 C 3,9 C 84 % 1022,3 hPa 0,0 l/m 0 min 0 min 0 W/m 6,4 km/h (2 Bft) 97,87 %
06.01.2020 17:16 5,7 C 4,4 C 3,9 C 84 % 1022,4 hPa 0,0 l/m 0 min 0 min 0 W/m 0,0 km/h (0 Bft) 97,87 %
06.01.2020 17:18 5,7 C 4,4 C 3,9 C 84 % 1022,3 hPa 0,0 l/m 0 min 0 min 0 W/m 0,0 km/h (0 Bft) 95,74 %
06.01.2020 17:20 5,6 C 4,4 C 3,9 C 84 % 1022,3 hPa 0,0 l/m 0 min 0 min 0 W/m 0,0 km/h (0 Bft) 97,87 %
06.01.2020 17:22 5,6 C 4,4 C 3,9 C 84 % 1022,2 hPa 0,0 l/m 0 min 0 min 0 W/m 0,0 km/h (0 Bft) 97,83 %
06.01.2020 17:24 5,6 C 4,4 C 3,9 C 84 % 1022,3 hPa 0,0 l/m 0 min 0 min 0 W/m 12,9 km/h (3 Bft) 97,87 %
06.01.2020 17:26 5,6 C 4,4 C 3,9 C 84 % 1022,3 hPa 0,0 l/m 0 min 0 min 0 W/m 3,2 km/h (1 Bft) 97,87 %
06.01.2020 17:28 5,6 C 4,4 C 3,9 C 84 % 1022,2 hPa 0,0 l/m 0 min 0 min 0 W/m 0,0 km/h (0 Bft) 100,00 %
06.01.2020 17:30 5,5 C 4,4 C 3,9 C 84 % 1022,2 hPa 0,0 l/m 0 min 0 min 0 W/m 0,0 km/h (0 Bft) 100,00 %
06.01.2020 17:32 5,5 C 4,4 C 3,9 C 84 % 1022,2 hPa 0,0 l/m 0 min 0 min 0 W/m 3,2 km/h (1 Bft) 100,00 %
06.01.2020 17:34 5,5 C 4,4 C 3,9 C 84 % 1022,2 hPa 0,0 l/m 0 min 0 min 0 W/m 6,4 km/h (2 Bft) 100,00 %
06.01.2020 17:36 5,5 C 5,0 C 3,9 C 84 % 1022,2 hPa 0,0 l/m 0 min 0 min 0 W/m 25,7 km/h (4 Bft) 97,87 %
06.01.2020 17:38 5,4 C 5,0 C 3,9 C 84 % 1022,4 hPa 0,0 l/m 0 min 0 min 0 W/m 0,0 km/h (0 Bft) 100,00 %
06.01.2020 17:40 5,5 C 5,0 C 3,9 C 85 % 1022,3 hPa 0,0 l/m 0 min 0 min 0 W/m 3,2 km/h (1 Bft) 100,00 %
06.01.2020 17:42 5,4 C 5,0 C 3,9 C 85 % 1022,3 hPa 0,0 l/m 0 min 0 min 0 W/m 0,0 km/h (0 Bft) 100,00 %
06.01.2020 17:44 5,4 C 4,4 C 3,9 C 85 % 1022,2 hPa 0,0 l/m 0 min 0 min 0 W/m 0,0 km/h (0 Bft) 100,00 %
06.01.2020 17:46 5,4 C 4,4 C 3,9 C 85 % 1022,2 hPa 0,0 l/m 0 min 0 min 0 W/m 0,0 km/h (0 Bft) 95,65 %
06.01.2020 17:48 5,4 C 5,0 C 3,9 C 85 % 1022,2 hPa 0,0 l/m 0 min 0 min 0 W/m 12,9 km/h (3 Bft) 100,00 %
06.01.2020 17:50 5,4 C 4,4 C 3,9 C 85 % 1022,2 hPa 0,0 l/m 0 min 0 min 0 W/m 0,0 km/h (0 Bft) 100,00 %
06.01.2020 17:52 5,4 C 4,4 C 3,9 C 85 % 1022,1 hPa 0,0 l/m 0 min 0 min 0 W/m 6,4 km/h (2 Bft) 100,00 %
06.01.2020 17:54 5,4 C 4,4 C 3,9 C 85 % 1022,2 hPa 0,0 l/m 0 min 0 min 0 W/m 12,9 km/h (3 Bft) 95,74 %
06.01.2020 17:56 5,4 C 4,4 C 3,9 C 85 % 1022,1 hPa 0,0 l/m 0 min 0 min 0 W/m 0,0 km/h (0 Bft) 100,00 %
06.01.2020 17:58 5,4 C 4,4 C 3,9 C 85 % 1022,1 hPa 0,0 l/m 0 min 0 min 0 W/m 12,9 km/h (3 Bft) 100,00 %
06.01.2020 18:00 5,4 C 4,4 C 3,9 C 85 % 1022,0 hPa 0,0 l/m 0 min 0 min 0 W/m 3,2 km/h (1 Bft) 100,00 %
06.01.2020 18:02 5,4 C 4,4 C 3,9 C 85 % 1022,0 hPa 0,0 l/m 0 min 0 min 0 W/m 22,5 km/h (4 Bft) 100,00 %
06.01.2020 18:04 5,4 C 4,4 C 3,9 C 85 % 1022,0 hPa 0,0 l/m 0 min 0 min 0 W/m 12,9 km/h (3 Bft) 100,00 %
06.01.2020 18:06 5,3 C 4,4 C 3,9 C 85 % 1022,0 hPa 0,0 l/m 0 min 0 min 0 W/m 16,1 km/h (3 Bft) 100,00 %
06.01.2020 18:08 5,3 C 4,4 C 3,9 C 85 % 1022,0 hPa 0,0 l/m 0 min 0 min 0 W/m 16,1 km/h (3 Bft) 100,00 %
06.01.2020 18:10 5,3 C 4,4 C 3,9 C 85 % 1021,9 hPa 0,0 l/m 0 min 0 min 0 W/m 22,5 km/h (4 Bft) 100,00 %
06.01.2020 18:12 5,3 C 4,4 C 3,9 C 85 % 1021,9 hPa 0,0 l/m 0 min 0 min 0 W/m 22,5 km/h (4 Bft) 100,00 %
06.01.2020 18:14 5,3 C 4,4 C 3,9 C 85 % 1021,9 hPa 0,0 l/m 0 min 0 min 0 W/m 16,1 km/h (3 Bft) 97,87 %
06.01.2020 18:16 5,3 C 4,4 C 3,9 C 85 % 1021,8 hPa 0,0 l/m 0 min 0 min 0 W/m 22,5 km/h (4 Bft) 97,87 %
06.01.2020 18:18 5,3 C 4,4 C 3,9 C 85 % 1021,8 hPa 0,0 l/m 0 min 0 min 0 W/m 3,2 km/h (1 Bft) 100,00 %
06.01.2020 18:20 5,3 C 4,4 C 3,9 C 85 % 1021,8 hPa 0,0 l/m 0 min 0 min 0 W/m 22,5 km/h (4 Bft) 100,00 %
06.01.2020 18:22 5,3 C 4,4 C 3,9 C 86 % 1021,7 hPa 0,0 l/m 0 min 0 min 0 W/m 25,7 km/h (4 Bft) 100,00 %
06.01.2020 18:24 5,3 C 4,4 C 3,9 C 86 % 1021,7 hPa 0,0 l/m 0 min 0 min 0 W/m 19,3 km/h (3 Bft) 95,74 %
06.01.2020 18:26 5,3 C 4,4 C 3,9 C 86 % 1021,7 hPa 0,0 l/m 0 min 0 min 0 W/m 29,0 km/h (5 Bft) 100,00 %
06.01.2020 18:28 5,3 C 4,4 C 3,9 C 86 % 1021,7 hPa 0,0 l/m 0 min 0 min 0 W/m 22,5 km/h (4 Bft) 100,00 %
06.01.2020 18:30 5,2 C 4,4 C 3,9 C 86 % 1021,8 hPa 0,0 l/m 0 min 0 min 0 W/m 19,3 km/h (3 Bft) 100,00 %
06.01.2020 18:32 5,2 C 4,4 C 3,9 C 86 % 1021,7 hPa 0,0 l/m 0 min 0 min 0 W/m 25,7 km/h (4 Bft) 100,00 %
06.01.2020 18:34 5,2 C 4,4 C 3,9 C 86 % 1021,7 hPa 0,0 l/m 0 min 0 min 0 W/m 25,7 km/h (4 Bft) 97,87 %
06.01.2020 18:36 5,2 C 4,4 C 3,9 C 86 % 1021,7 hPa 0,0 l/m 0 min 0 min 0 W/m 25,7 km/h (4 Bft) 97,87 %
06.01.2020 18:38 5,2 C 4,4 C 3,9 C 86 % 1021,7 hPa 0,0 l/m 0 min 0 min 0 W/m 35,4 km/h (5 Bft) 97,87 %
06.01.2020 18:40 5,2 C 4,4 C 3,9 C 86 % 1021,7 hPa 0,0 l/m 0 min 0 min 0 W/m 16,1 km/h (3 Bft) 97,87 %
06.01.2020 18:42 5,2 C 4,4 C 3,9 C 87 % 1021,7 hPa 0,0 l/m 0 min 0 min 0 W/m 25,7 km/h (4 Bft) 95,74 %
06.01.2020 18:44 5,2 C 4,4 C 3,9 C 87 % 1021,7 hPa 0,0 l/m 0 min 0 min 0 W/m 25,7 km/h (4 Bft) 100,00 %
06.01.2020 18:46 5,2 C 4,4 C 3,9 C 87 % 1021,8 hPa 0,0 l/m 0 min 0 min 0 W/m 22,5 km/h (4 Bft) 100,00 %
06.01.2020 18:48 5,2 C 4,4 C 3,9 C 87 % 1021,7 hPa 0,0 l/m 0 min 0 min 0 W/m 25,7 km/h (4 Bft) 97,87 %
06.01.2020 18:50 5,2 C 4,4 C 3,9 C 87 % 1021,8 hPa 0,0 l/m 0 min 0 min 0 W/m 22,5 km/h (4 Bft) 100,00 %
06.01.2020 18:52 5,1 C 4,4 C 3,3 C 87 % 1021,7 hPa 0,0 l/m 0 min 0 min 0 W/m 19,3 km/h (3 Bft) 97,87 %
06.01.2020 18:54 5,1 C 4,4 C 3,3 C 87 % 1021,7 hPa 0,0 l/m 0 min 0 min 0 W/m 22,5 km/h (4 Bft) 97,83 %
06.01.2020 18:56 5,1 C 4,4 C 3,3 C 87 % 1021,7 hPa 0,0 l/m 0 min 0 min 0 W/m 12,9 km/h (3 Bft) 95,74 %
06.01.2020 18:58 5,1 C 4,4 C 3,3 C 87 % 1021,7 hPa 0,0 l/m 0 min 0 min 0 W/m 22,5 km/h (4 Bft) 95,74 %
06.01.2020 19:00 5,1 C 3,9 C 3,3 C 87 % 1021,7 hPa 0,0 l/m 0 min 0 min 0 W/m 19,3 km/h (3 Bft) 93,62 %
06.01.2020 19:02 5,0 C 3,9 C 3,3 C 87 % 1021,7 hPa 0,0 l/m 0 min 0 min 0 W/m 25,7 km/h (4 Bft) 93,62 %
06.01.2020 19:04 5,0 C 4,4 C 3,3 C 87 % 1021,7 hPa 0,0 l/m 0 min 0 min 0 W/m 29,0 km/h (5 Bft) 91,49 %
06.01.2020 19:06 5,0 C 3,9 C 3,3 C 87 % 1021,7 hPa 0,0 l/m 0 min 0 min 0 W/m 12,9 km/h (3 Bft) 93,48 %
06.01.2020 19:08 5,0 C 3,9 C 3,3 C 87 % 1021,7 hPa 0,0 l/m 0 min 0 min 0 W/m 6,4 km/h (2 Bft) 95,74 %
06.01.2020 19:10 4,9 C 3,9 C 3,3 C 87 % 1021,6 hPa 0,0 l/m 0 min 0 min 0 W/m 25,7 km/h (4 Bft) 95,74 %
06.01.2020 19:12 4,9 C 3,9 C 3,3 C 87 % 1021,6 hPa 0,0 l/m 0 min 0 min 0 W/m 22,5 km/h (4 Bft) 95,74 %
06.01.2020 19:14 4,9 C 3,9 C 3,3 C 87 % 1021,5 hPa 0,0 l/m 0 min 0 min 0 W/m 25,7 km/h (4 Bft) 95,74 %
06.01.2020 19:16 4,9 C 3,9 C 3,3 C 88 % 1021,7 hPa 0,0 l/m 0 min 0 min 0 W/m 19,3 km/h (3 Bft) 95,74 %
06.01.2020 19:18 4,8 C 3,9 C 3,3 C 88 % 1021,7 hPa 0,0 l/m 0 min 0 min 0 W/m 3,2 km/h (1 Bft) 95,65 %
06.01.2020 19:20 4,8 C 3,9 C 3,3 C 88 % 1021,7 hPa 0,0 l/m 0 min 0 min 0 W/m 25,7 km/h (4 Bft) 95,74 %
06.01.2020 19:22 4,8 C 3,9 C 3,3 C 88 % 1021,8 hPa 0,0 l/m 0 min 0 min 0 W/m 25,7 km/h (4 Bft) 93,62 %
06.01.2020 19:24 4,8 C 3,9 C 3,3 C 88 % 1021,8 hPa 0,0 l/m 0 min 0 min 0 W/m 6,4 km/h (2 Bft) 95,74 %
06.01.2020 19:26 4,8 C 3,9 C 3,3 C 88 % 1021,8 hPa 0,0 l/m 0 min 0 min 0 W/m 19,3 km/h (3 Bft) 93,62 %
06.01.2020 19:28 4,7 C 3,9 C 3,3 C 88 % 1021,8 hPa 0,0 l/m 0 min 0 min 0 W/m 22,5 km/h (4 Bft) 95,74 %
06.01.2020 19:30 4,7 C 3,9 C 3,3 C 88 % 1021,9 hPa 0,0 l/m 0 min 0 min 0 W/m 19,3 km/h (3 Bft) 93,48 %
06.01.2020 19:32 4,7 C 3,9 C 3,3 C 88 % 1021,9 hPa 0,0 l/m 0 min 0 min 0 W/m 3,2 km/h (1 Bft) 97,87 %
06.01.2020 19:34 4,7 C 3,9 C 3,3 C 88 % 1021,9 hPa 0,0 l/m 0 min 0 min 0 W/m 6,4 km/h (2 Bft) 97,87 %
06.01.2020 19:36 4,7 C 3,9 C 3,3 C 88 % 1022,0 hPa 0,0 l/m 0 min 0 min 0 W/m 22,5 km/h (4 Bft) 97,87 %
06.01.2020 19:38 4,7 C 3,9 C 3,3 C 88 % 1021,9 hPa 0,0 l/m 0 min 0 min 0 W/m 16,1 km/h (3 Bft) 97,87 %
06.01.2020 19:40 4,6 C 3,9 C 3,3 C 88 % 1021,9 hPa 0,0 l/m 0 min 0 min 0 W/m 19,3 km/h (3 Bft) 93,62 %
06.01.2020 19:42 4,6 C 3,9 C 3,3 C 88 % 1021,8 hPa 0,0 l/m 0 min 0 min 0 W/m 6,4 km/h (2 Bft) 95,65 %
06.01.2020 19:44 4,6 C 3,9 C 3,3 C 88 % 1021,8 hPa 0,0 l/m 0 min 0 min 0 W/m 16,1 km/h (3 Bft) 97,87 %
06.01.2020 19:46 4,6 C 3,9 C 3,3 C 88 % 1021,8 hPa 0,0 l/m 0 min 0 min 0 W/m 16,1 km/h (3 Bft) 97,87 %
06.01.2020 19:48 4,6 C 3,9 C 3,3 C 88 % 1021,9 hPa 0,0 l/m 0 min 0 min 0 W/m 9,7 km/h (2 Bft) 100,00 %
06.01.2020 19:50 4,6 C 3,9 C 3,3 C 88 % 1022,0 hPa 0,0 l/m 0 min 0 min 0 W/m 0,0 km/h (0 Bft) 100,00 %
06.01.2020 19:52 4,6 C 3,9 C 3,3 C 88 % 1022,0 hPa 0,0 l/m 0 min 0 min 0 W/m 0,0 km/h (0 Bft) 100,00 %
06.01.2020 19:54 4,5 C 3,9 C 3,3 C 88 % 1022,0 hPa 0,0 l/m 0 min 0 min 0 W/m 0,0 km/h (0 Bft) 97,87 %
06.01.2020 19:56 4,5 C 3,9 C 3,3 C 88 % 1022,0 hPa 0,0 l/m 0 min 0 min 0 W/m 16,1 km/h (3 Bft) 100,00 %
06.01.2020 19:58 4,5 C 3,9 C 2,8 C 88 % 1022,0 hPa 0,0 l/m 0 min 0 min 0 W/m 3,2 km/h (1 Bft) 100,00 %
06.01.2020 20:00 4,5 C 3,9 C 2,8 C 88 % 1021,8 hPa 0,0 l/m 0 min 0 min 0 W/m 3,2 km/h (1 Bft) 97,87 %
06.01.2020 20:02 4,4 C 3,9 C 2,8 C 88 % 1021,8 hPa 0,0 l/m 0 min 0 min 0 W/m 0,0 km/h (0 Bft) 97,87 %
06.01.2020 20:04 4,4 C 3,3 C 2,8 C 88 % 1021,8 hPa 0,0 l/m 0 min 0 min 0 W/m 12,9 km/h (3 Bft) 97,83 %
06.01.2020 20:06 4,4 C 3,9 C 2,8 C 88 % 1021,8 hPa 0,0 l/m 0 min 0 min 0 W/m 22,5 km/h (4 Bft) 100,00 %
06.01.2020 20:08 4,4 C 3,9 C 2,8 C 88 % 1021,8 hPa 0,0 l/m 0 min 0 min 0 W/m 35,4 km/h (5 Bft) 100,00 %
06.01.2020 20:10 4,4 C 3,9 C 2,8 C 88 % 1021,8 hPa 0,0 l/m 0 min 0 min 0 W/m 29,0 km/h (5 Bft) 100,00 %
06.01.2020 20:12 4,4 C 3,9 C 2,8 C 88 % 1021,8 hPa 0,0 l/m 0 min 0 min 0 W/m 19,3 km/h (3 Bft) 100,00 %
06.01.2020 20:14 4,4 C 3,3 C 2,8 C 88 % 1021,8 hPa 0,0 l/m 0 min 0 min 0 W/m 16,1 km/h (3 Bft) 95,74 %
06.01.2020 20:16 4,4 C 3,3 C 2,8 C 88 % 1021,8 hPa 0,0 l/m 0 min 0 min 0 W/m 16,1 km/h (3 Bft) 97,83 %
06.01.2020 20:18 4,3 C 3,3 C 2,8 C 88 % 1021,7 hPa 0,0 l/m 0 min 0 min 0 W/m 19,3 km/h (3 Bft) 97,87 %
06.01.2020 20:20 4,3 C 3,3 C 2,8 C 88 % 1021,8 hPa 0,0 l/m 0 min 0 min 0 W/m 3,2 km/h (1 Bft) 97,87 %
06.01.2020 20:22 4,3 C 3,3 C 2,8 C 88 % 1021,6 hPa 0,0 l/m 0 min 0 min 0 W/m 16,1 km/h (3 Bft) 97,87 %
06.01.2020 20:24 4,3 C 3,3 C 2,8 C 88 % 1021,7 hPa 0,0 l/m 0 min 0 min 0 W/m 0,0 km/h (0 Bft) 97,87 %
06.01.2020 20:26 4,3 C 3,3 C 2,8 C 88 % 1021,7 hPa 0,0 l/m 0 min 0 min 0 W/m 16,1 km/h (3 Bft) 97,87 %
06.01.2020 20:28 4,3 C 3,3 C 2,8 C 88 % 1021,8 hPa 0,0 l/m 0 min 0 min 0 W/m 16,1 km/h (3 Bft) 97,83 %
06.01.2020 20:30 4,3 C 3,3 C 2,8 C 88 % 1021,7 hPa 0,0 l/m 0 min 0 min 0 W/m 16,1 km/h (3 Bft) 95,74 %
06.01.2020 20:32 4,2 C 3,3 C 2,8 C 88 % 1021,8 hPa 0,0 l/m 0 min 0 min 0 W/m 12,9 km/h (3 Bft) 97,87 %
06.01.2020 20:34 4,2 C 3,3 C 2,8 C 88 % 1021,8 hPa 0,0 l/m 0 min 0 min 0 W/m 0,0 km/h (0 Bft) 97,87 %
06.01.2020 20:36 4,2 C 3,3 C 2,8 C 88 % 1021,8 hPa 0,0 l/m 0 min 0 min 0 W/m 16,1 km/h (3 Bft) 97,87 %
06.01.2020 20:38 4,2 C 3,3 C 2,8 C 88 % 1021,8 hPa 0,0 l/m 0 min 0 min 0 W/m 0,0 km/h (0 Bft) 95,74 %
06.01.2020 20:40 4,2 C 3,3 C 2,8 C 88 % 1021,8 hPa 0,0 l/m 0 min 0 min 0 W/m 6,4 km/h (2 Bft) 95,65 %
06.01.2020 20:42 4,1 C 3,3 C 2,8 C 88 % 1021,7 hPa 0,0 l/m 0 min 0 min 0 W/m 19,3 km/h (3 Bft) 95,74 %
06.01.2020 20:44 4,1 C 3,3 C 2,8 C 88 % 1021,7 hPa 0,0 l/m 0 min 0 min 0 W/m 0,0 km/h (0 Bft) 97,87 %
06.01.2020 20:46 4,1 C 3,3 C 2,8 C 88 % 1021,8 hPa 0,0 l/m 0 min 0 min 0 W/m 16,1 km/h (3 Bft) 97,87 %
06.01.2020 20:48 4,1 C 3,3 C 2,2 C 89 % 1021,8 hPa 0,0 l/m 0 min 0 min 0 W/m 0,0 km/h (0 Bft) 97,87 %
06.01.2020 20:50 4,1 C 3,3 C 2,2 C 89 % 1021,9 hPa 0,0 l/m 0 min 0 min 0 W/m 6,4 km/h (2 Bft) 97,83 %
06.01.2020 20:52 4,1 C 3,3 C 2,2 C 89 % 1021,8 hPa 0,0 l/m 0 min 0 min 0 W/m 0,0 km/h (0 Bft) 97,87 %
06.01.2020 20:54 4,0 C 3,3 C 2,2 C 89 % 1021,9 hPa 0,0 l/m 0 min 0 min 0 W/m 3,2 km/h (1 Bft) 97,87 %
06.01.2020 20:56 4,0 C 3,3 C 2,2 C 89 % 1021,8 hPa 0,0 l/m 0 min 0 min 0 W/m 3,2 km/h (1 Bft) 95,74 %
06.01.2020 20:58 3,9 C 2,8 C 2,2 C 89 % 1021,8 hPa 0,0 l/m 0 min 0 min 0 W/m 0,0 km/h (0 Bft) 97,87 %
06.01.2020 21:00 3,9 C 2,8 C 2,2 C 89 % 1021,8 hPa 0,0 l/m 0 min 0 min 0 W/m 3,2 km/h (1 Bft) 97,87 %
06.01.2020 21:02 3,9 C 2,8 C 2,2 C 89 % 1021,8 hPa 0,0 l/m 0 min 0 min 0 W/m 16,1 km/h (3 Bft) 97,83 %
06.01.2020 21:04 3,9 C 2,8 C 2,2 C 89 % 1021,7 hPa 0,0 l/m 0 min 0 min 0 W/m 6,4 km/h (2 Bft) 97,87 %
06.01.2020 21:06 3,8 C 2,8 C 2,2 C 89 % 1021,6 hPa 0,0 l/m 0 min 0 min 0 W/m 19,3 km/h (3 Bft) 93,62 %
06.01.2020 21:08 3,8 C 2,8 C 2,2 C 89 % 1021,7 hPa 0,0 l/m 0 min 0 min 0 W/m 3,2 km/h (1 Bft) 97,87 %
06.01.2020 21:10 3,8 C 2,8 C 2,2 C 89 % 1021,8 hPa 0,0 l/m 0 min 0 min 0 W/m 3,2 km/h (1 Bft) 97,87 %
06.01.2020 21:12 3,8 C 2,8 C 2,2 C 89 % 1021,8 hPa 0,0 l/m 0 min 0 min 0 W/m 0,0 km/h (0 Bft) 97,87 %
06.01.2020 21:14 3,8 C 2,8 C 2,2 C 89 % 1021,9 hPa 0,0 l/m 0 min 0 min 0 W/m 0,0 km/h (0 Bft) 95,65 %
06.01.2020 21:16 3,7 C 2,8 C 2,2 C 89 % 1021,9 hPa 0,0 l/m 0 min 0 min 0 W/m 16,1 km/h (3 Bft) 97,87 %
06.01.2020 21:18 3,7 C 2,8 C 2,2 C 89 % 1021,9 hPa 0,0 l/m 0 min 0 min 0 W/m 12,9 km/h (3 Bft) 93,62 %
06.01.2020 21:20 3,7 C 2,8 C 2,2 C 89 % 1021,9 hPa 0,0 l/m 0 min 0 min 0 W/m 12,9 km/h (3 Bft) 95,74 %
06.01.2020 21:22 3,7 C 2,8 C 2,2 C 89 % 1021,8 hPa 0,0 l/m 0 min 0 min 0 W/m 16,1 km/h (3 Bft) 97,87 %
06.01.2020 21:24 3,6 C 2,8 C 2,2 C 89 % 1021,8 hPa 0,0 l/m 0 min 0 min 0 W/m 6,4 km/h (2 Bft) 97,87 %
06.01.2020 21:26 3,6 C 2,8 C 2,2 C 89 % 1021,8 hPa 0,0 l/m 0 min 0 min 0 W/m 6,4 km/h (2 Bft) 97,83 %
06.01.2020 21:28 3,6 C 2,8 C 2,2 C 89 % 1021,8 hPa 0,0 l/m 0 min 0 min 0 W/m 0,0 km/h (0 Bft) 95,74 %
06.01.2020 21:30 3,6 C 2,8 C 2,2 C 89 % 1021,7 hPa 0,0 l/m 0 min 0 min 0 W/m 0,0 km/h (0 Bft) 97,87 %
06.01.2020 21:32 3,6 C 2,8 C 2,2 C 89 % 1021,6 hPa 0,0 l/m 0 min 0 min 0 W/m 0,0 km/h (0 Bft) 97,87 %
06.01.2020 21:34 3,6 C 2,8 C 2,2 C 89 % 1021,6 hPa 0,0 l/m 0 min 0 min 0 W/m 0,0 km/h (0 Bft) 97,87 %
06.01.2020 21:36 3,5 C 2,8 C 2,2 C 89 % 1021,5 hPa 0,0 l/m 0 min 0 min 0 W/m 6,4 km/h (2 Bft) 97,83 %
06.01.2020 21:38 3,5 C 2,8 C 2,2 C 89 % 1021,4 hPa 0,0 l/m 0 min 0 min 0 W/m 0,0 km/h (0 Bft) 95,74 %
06.01.2020 21:40 3,5 C 2,8 C 2,2 C 89 % 1021,4 hPa 0,0 l/m 0 min 0 min 0 W/m 3,2 km/h (1 Bft) 97,87 %
06.01.2020 21:42 3,4 C 2,8 C 2,2 C 89 % 1021,5 hPa 0,0 l/m 0 min 0 min 0 W/m 0,0 km/h (0 Bft) 95,74 %
06.01.2020 21:44 3,4 C 2,8 C 2,2 C 89 % 1021,4 hPa 0,0 l/m 0 min 0 min 0 W/m 0,0 km/h (0 Bft) 97,87 %
06.01.2020 21:46 3,4 C 2,8 C 2,2 C 89 % 1021,4 hPa 0,0 l/m 0 min 0 min 0 W/m 0,0 km/h (0 Bft) 97,87 %
06.01.2020 21:48 3,4 C 2,8 C 1,7 C 89 % 1021,4 hPa 0,0 l/m 0 min 0 min 0 W/m 3,2 km/h (1 Bft) 95,65 %
06.01.2020 21:50 3,4 C 2,8 C 1,7 C 89 % 1021,2 hPa 0,0 l/m 0 min 0 min 0 W/m 0,0 km/h (0 Bft) 97,87 %
06.01.2020 21:52 3,4 C 2,8 C 1,7 C 89 % 1021,2 hPa 0,0 l/m 0 min 0 min 0 W/m 3,2 km/h (1 Bft) 93,62 %
06.01.2020 21:54 3,3 C 2,8 C 1,7 C 89 % 1021,2 hPa 0,0 l/m 0 min 0 min 0 W/m 3,2 km/h (1 Bft) 95,74 %
06.01.2020 21:56 3,3 C 2,8 C 1,7 C 89 % 1021,1 hPa 0,0 l/m 0 min 0 min 0 W/m 3,2 km/h (1 Bft) 93,62 %
06.01.2020 21:58 3,3 C 2,8 C 2,2 C 89 % 1021,1 hPa 0,0 l/m 0 min 0 min 0 W/m 16,1 km/h (3 Bft) 91,49 %
06.01.2020 22:00 3,3 C 2,8 C 2,2 C 89 % 1021,1 hPa 0,0 l/m 0 min 0 min 0 W/m 12,9 km/h (3 Bft) 97,87 %
06.01.2020 22:02 3,3 C 2,8 C 2,2 C 89 % 1021,1 hPa 0,0 l/m 0 min 0 min 0 W/m 0,0 km/h (0 Bft) 97,83 %
06.01.2020 22:04 3,3 C 2,8 C 1,7 C 89 % 1020,9 hPa 0,0 l/m 0 min 0 min 0 W/m 0,0 km/h (0 Bft) 57,45 %
06.01.2020 22:06 3,3 C 2,8 C 1,7 C 89 % 1021,0 hPa 0,0 l/m 0 min 0 min 0 W/m 0,0 km/h (0 Bft) 97,37 %
06.01.2020 22:08 3,3 C 2,8 C 2,2 C 89 % 1021,0 hPa 0,0 l/m 0 min 0 min 0 W/m 0,0 km/h (0 Bft) 97,87 %
06.01.2020 22:10 3,3 C 2,8 C 2,2 C 89 % 1021,0 hPa 0,0 l/m 0 min 0 min 0 W/m 0,0 km/h (0 Bft) 97,87 %
06.01.2020 22:12 3,3 C 2,8 C 1,7 C 89 % 1021,1 hPa 0,0 l/m 0 min 0 min 0 W/m 0,0 km/h (0 Bft) 97,83 %
06.01.2020 22:14 3,3 C 2,8 C 1,7 C 89 % 1021,2 hPa 0,0 l/m 0 min 0 min 0 W/m 0,0 km/h (0 Bft) 95,74 %
06.01.2020 22:16 3,3 C 2,2 C 1,7 C 89 % 1021,3 hPa 0,0 l/m 0 min 0 min 0 W/m 0,0 km/h (0 Bft) 95,74 %
06.01.2020 22:18 3,3 C 2,2 C 1,7 C 89 % 1021,2 hPa 0,0 l/m 0 min 0 min 0 W/m 0,0 km/h (0 Bft) 97,87 %
06.01.2020 22:20 3,3 C 2,2 C 1,7 C 89 % 1021,1 hPa 0,0 l/m 0 min 0 min 0 W/m 0,0 km/h (0 Bft) 97,87 %
06.01.2020 22:22 3,2 C 2,2 C 1,7 C 89 % 1021,1 hPa 0,0 l/m 0 min 0 min 0 W/m 0,0 km/h (0 Bft) 97,87 %
06.01.2020 22:24 3,2 C 2,2 C 1,7 C 89 % 1021,0 hPa 0,0 l/m 0 min 0 min 0 W/m 3,2 km/h (1 Bft) 97,83 %
06.01.2020 22:26 3,2 C 2,2 C 1,7 C 89 % 1021,3 hPa 0,0 l/m 0 min 0 min 0 W/m 0,0 km/h (0 Bft) 97,87 %
06.01.2020 22:28 3,2 C 2,2 C 1,7 C 89 % 1021,6 hPa 0,0 l/m 0 min 0 min 0 W/m 0,0 km/h (0 Bft) 97,87 %
06.01.2020 22:30 3,2 C 2,2 C 1,7 C 88 % 1021,7 hPa 0,0 l/m 0 min 0 min 0 W/m 0,0 km/h (0 Bft) 95,74 %
06.01.2020 22:32 3,2 C 2,2 C 1,7 C 88 % 1021,8 hPa 0,0 l/m 0 min 0 min 0 W/m 0,0 km/h (0 Bft) 97,87 %
06.01.2020 22:34 3,2 C 2,2 C 1,1 C 88 % 1021,8 hPa 0,0 l/m 0 min 0 min 0 W/m 0,0 km/h (0 Bft) 95,65 %
06.01.2020 22:36 3,1 C 2,2 C 1,1 C 88 % 1021,9 hPa 0,0 l/m 0 min 0 min 0 W/m 0,0 km/h (0 Bft) 97,87 %
06.01.2020 22:38 3,1 C 1,7 C 1,1 C 88 % 1022,2 hPa 0,0 l/m 0 min 0 min 0 W/m 0,0 km/h (0 Bft) 97,87 %
06.01.2020 22:40 3,1 C 1,7 C 0,6 C 88 % 1022,2 hPa 0,0 l/m 0 min 0 min 0 W/m 0,0 km/h (0 Bft) 100,00 %
06.01.2020 22:42 3,1 C 1,7 C 0,6 C 88 % 1022,2 hPa 0,0 l/m 0 min 0 min 0 W/m 0,0 km/h (0 Bft) 97,87 %
06.01.2020 22:44 3,1 C 1,7 C 0,6 C 88 % 1022,2 hPa 0,0 l/m 0 min 0 min 0 W/m 0,0 km/h (0 Bft) 97,87 %
06.01.2020 22:46 3,1 C 1,7 C 0,6 C 88 % 1022,2 hPa 0,0 l/m 0 min 0 min 0 W/m 0,0 km/h (0 Bft) 100,00 %
06.01.2020 22:48 3,0 C 1,7 C 0,6 C 88 % 1022,1 hPa 0,0 l/m 0 min 0 min 0 W/m 0,0 km/h (0 Bft) 100,00 %
06.01.2020 22:50 2,9 C 1,7 C 1,1 C 88 % 1022,1 hPa 0,0 l/m 0 min 0 min 0 W/m 0,0 km/h (0 Bft) 100,00 %
06.01.2020 22:52 2,9 C 1,7 C 1,1 C 88 % 1022,2 hPa 0,0 l/m 0 min 0 min 0 W/m 0,0 km/h (0 Bft) 97,87 %
06.01.2020 22:54 2,9 C 1,7 C 1,1 C 88 % 1022,2 hPa 0,0 l/m 0 min 0 min 0 W/m 0,0 km/h (0 Bft) 100,00 %
06.01.2020 22:56 2,8 C 2,2 C 1,1 C 88 % 1022,2 hPa 0,0 l/m 0 min 0 min 0 W/m 0,0 km/h (0 Bft) 97,87 %
06.01.2020 22:58 2,8 C 2,2 C 1,7 C 88 % 1022,2 hPa 0,0 l/m 0 min 0 min 0 W/m 0,0 km/h (0 Bft) 100,00 %
06.01.2020 23:00 2,8 C 2,2 C 1,7 C 89 % 1022,3 hPa 0,0 l/m 0 min 0 min 0 W/m 0,0 km/h (0 Bft) 100,00 %
06.01.2020 23:02 2,8 C 2,2 C 1,7 C 89 % 1022,3 hPa 0,0 l/m 0 min 0 min 0 W/m 0,0 km/h (0 Bft) 97,87 %
06.01.2020 23:04 2,8 C 2,8 C 2,2 C 89 % 1022,2 hPa 0,0 l/m 0 min 0 min 0 W/m 3,2 km/h (1 Bft) 100,00 %
06.01.2020 23:06 2,9 C 2,8 C 2,2 C 89 % 1022,2 hPa 0,0 l/m 0 min 0 min 0 W/m 0,0 km/h (0 Bft) 97,87 %
06.01.2020 23:08 2,9 C 3,3 C 2,2 C 89 % 1022,4 hPa 0,0 l/m 0 min 0 min 0 W/m 3,2 km/h (1 Bft) 100,00 %
06.01.2020 23:10 2,9 C 3,3 C 2,2 C 89 % 1022,3 hPa 0,0 l/m 0 min 0 min 0 W/m 0,0 km/h (0 Bft) 100,00 %
06.01.2020 23:12 3,0 C 3,3 C 2,8 C 89 % 1022,1 hPa 0,0 l/m 0 min 0 min 0 W/m 0,0 km/h (0 Bft) 100,00 %
06.01.2020 23:14 3,1 C 3,3 C 2,8 C 90 % 1022,2 hPa 0,0 l/m 0 min 0 min 0 W/m 0,0 km/h (0 Bft) 100,00 %
06.01.2020 23:16 3,1 C 3,3 C 2,8 C 90 % 1022,1 hPa 0,0 l/m 0 min 0 min 0 W/m 0,0 km/h (0 Bft) 100,00 %
06.01.2020 23:18 3,2 C 3,3 C 2,8 C 90 % 1022,0 hPa 0,0 l/m 0 min 0 min 0 W/m 0,0 km/h (0 Bft) 100,00 %
06.01.2020 23:20 3,2 C 3,3 C 2,8 C 90 % 1021,9 hPa 0,0 l/m 0 min 0 min 0 W/m 0,0 km/h (0 Bft) 100,00 %
06.01.2020 23:22 3,3 C 3,3 C 2,8 C 89 % 1022,0 hPa 0,0 l/m 0 min 0 min 0 W/m 0,0 km/h (0 Bft) 100,00 %
06.01.2020 23:24 3,3 C 3,3 C 2,8 C 89 % 1021,9 hPa 0,0 l/m 0 min 0 min 0 W/m 0,0 km/h (0 Bft) 97,87 %
06.01.2020 23:26 3,4 C 3,3 C 2,8 C 89 % 1021,8 hPa 0,0 l/m 0 min 0 min 0 W/m 0,0 km/h (0 Bft) 97,87 %
06.01.2020 23:28 3,4 C 3,3 C 2,8 C 89 % 1021,9 hPa 0,0 l/m 0 min 0 min 0 W/m 0,0 km/h (0 Bft) 100,00 %
06.01.2020 23:30 3,5 C 3,3 C 2,8 C 89 % 1022,1 hPa 0,0 l/m 0 min 0 min 0 W/m 3,2 km/h (1 Bft) 97,87 %
06.01.2020 23:32 3,6 C 3,3 C 2,8 C 89 % 1022,3 hPa 0,0 l/m 0 min 0 min 0 W/m 0,0 km/h (0 Bft) 97,87 %
06.01.2020 23:34 3,6 C 3,3 C 2,8 C 89 % 1022,2 hPa 0,0 l/m 0 min 0 min 0 W/m 3,2 km/h (1 Bft) 97,83 %
06.01.2020 23:36 3,6 C 3,3 C 2,8 C 89 % 1022,0 hPa 0,0 l/m 0 min 0 min 0 W/m 0,0 km/h (0 Bft) 97,87 %
06.01.2020 23:38 3,7 C 3,3 C 2,8 C 89 % 1022,0 hPa 0,0 l/m 0 min 0 min 0 W/m 0,0 km/h (0 Bft) 100,00 %
06.01.2020 23:40 3,7 C 3,3 C 2,8 C 89 % 1022,1 hPa 0,0 l/m 0 min 0 min 0 W/m 0,0 km/h (0 Bft) 97,87 %
06.01.2020 23:42 3,7 C 3,3 C 2,8 C 89 % 1022,2 hPa 0,0 l/m 0 min 0 min 0 W/m 3,2 km/h (1 Bft) 97,87 %
06.01.2020 23:44 3,8 C 3,9 C 2,8 C 89 % 1022,2 hPa 0,0 l/m 0 min 0 min 0 W/m 0,0 km/h (0 Bft) 97,87 %
06.01.2020 23:46 3,8 C 3,9 C 2,8 C 89 % 1022,3 hPa 0,0 l/m 0 min 0 min 0 W/m 0,0 km/h (0 Bft) 97,83 %
06.01.2020 23:48 3,8 C 3,9 C 3,3 C 89 % 1022,2 hPa 0,0 l/m 0 min 0 min 0 W/m 0,0 km/h (0 Bft) 97,87 %
06.01.2020 23:50 3,9 C 3,9 C 3,3 C 89 % 1022,3 hPa 0,0 l/m 0 min 0 min 0 W/m 12,9 km/h (3 Bft) 97,87 %
06.01.2020 23:52 4,0 C 3,9 C 3,3 C 89 % 1022,2 hPa 0,0 l/m 0 min 0 min 0 W/m 16,1 km/h (3 Bft) 97,87 %
06.01.2020 23:54 4,1 C 3,9 C 3,3 C 89 % 1022,2 hPa 0,0 l/m 0 min 0 min 0 W/m 22,5 km/h (4 Bft) 95,74 %
06.01.2020 23:56 4,1 C 4,4 C 3,3 C 89 % 1022,3 hPa 0,0 l/m 0 min 0 min 0 W/m 3,2 km/h (1 Bft) 95,65 %
06.01.2020 23:58 4,2 C 4,4 C 3,3 C 89 % 1022,1 hPa 0,0 l/m 0 min 0 min 0 W/m 0,0 km/h (0 Bft) 97,87 %
_ Min-Zeit 22:56 22:38 22:40 13:50 22:04 - - - - 00:00 08:56
Minimum _ 2,8 C 1,7 C 0,6 C 73 % 1020,9 hPa - - - - 0,0 km/h (0 Bft) 53,33 %
_ Max-Zeit 13:42 12:24 12:34 23:14 00:02 00:00 14:25 00:00 12:00 18:38 00:02
Maximum _ 7,9 C 11,7 C 8,9 C 90 % 1032,7 hPa 0,0 l/m 5 min 0 min 310 W/m 35,4 km/h
O-SO (5 Bft)
100,00 %
Durchschnitt _ 5,6 C 5,5 C 4,3 C 85 % 1026,7 hPa #0,0 l/m #3:20 h #0 min. 134 W/m 5,0 km/h (1 Bft) 97,37 %
© 2020 W. Hausmann